Home > Products > Valid Products > TAF

000
FTUS45 KBOU 011141
TAFAPA
TAF
KAPA 011141Z 0112/0212 15006KT P6SM SCT100 BKN200
     FM011600 11011KT P6SM FEW080 BKN110 BKN200
     FM012000 06012KT P6SM VCTS SCT060CB BKN080
      TEMPO 0121/0124 5SM SHRA BR BKN045 OVC060
     FM020000 02013G22KT 5SM -SHRA BR SCT035 BKN050
      TEMPO 0200/0204 3SM SHRA BR BKN025 OVC035
     FM020600 34008KT P6SM VCSH BKN045 OVC060 PROB30 0206/0209 -SHRA
      OVC035
     FM021100 VRB05KT P6SM VCFG FEW045 SCT060 BKN120=



000
FTUS45 KBOU 011141
TAFBJC
TAF
KBJC 011141Z 0112/0212 VRB04KT P6SM FEW100 BKN200
     FM011600 12008KT P6SM FEW070 BKN110 BKN200
     FM012000 04012KT P6SM VCTS SCT060CB BKN080
      TEMPO 0121/0124 5SM SHRA BR BKN045 OVC060
     FM020000 01012G20KT 5SM -SHRA BR BKN040 OVC050
      TEMPO 0200/0204 3SM SHRA BR BKN025 OVC040
     FM020500 33009KT P6SM VCSH SCT040 BKN060 PROB30 0205/0207 -SHRA
      BKN040
     FM021000 30006KT P6SM VCFG FEW050 SCT070 BKN120=



000
FTUS45 KBOU 011141
TAFDEN
TAF
KDEN 011141Z 0112/0218 16008KT P6SM SCT110 BKN220
     FM011600 12011KT P6SM FEW080 BKN110 BKN200
     FM012000 05013KT P6SM VCTS SCT060CB BKN080
      TEMPO 0121/0124 5SM SHRA BR BKN045 OVC060
     FM020000 01014G22KT 6SM -SHRA BR SCT040 BKN050
      TEMPO 0200/0204 3SM SHRA BR BKN025 OVC040
     FM020600 34008KT P6SM VCSH SCT045 BKN060 PROB30 0206/0208 -SHRA
      BKN040
     FM021200 29006KT P6SM VCFG FEW050 SCT070 BKN120
     FM021600 23008KT P6SM FEW120 SCT200=



000
FTUS45 KBOU 011141
TAFBJC
TAF
KBJC 011141Z 0112/0212 VRB04KT P6SM FEW100 BKN200
     FM011600 12008KT P6SM FEW070 BKN110 BKN200
     FM012000 04012KT P6SM VCTS SCT060CB BKN080
      TEMPO 0121/0124 5SM SHRA BR BKN045 OVC060
     FM020000 01012G20KT 5SM -SHRA BR BKN040 OVC050
      TEMPO 0200/0204 3SM SHRA BR BKN025 OVC040
     FM020500 33009KT P6SM VCSH SCT040 BKN060 PROB30 0205/0207 -SHRA
      BKN040
     FM021000 30006KT P6SM VCFG FEW050 SCT070 BKN120=



000
FTUS45 KBOU 011141
TAFAPA
TAF
KAPA 011141Z 0112/0212 15006KT P6SM SCT100 BKN200
     FM011600 11011KT P6SM FEW080 BKN110 BKN200
     FM012000 06012KT P6SM VCTS SCT060CB BKN080
      TEMPO 0121/0124 5SM SHRA BR BKN045 OVC060
     FM020000 02013G22KT 5SM -SHRA BR SCT035 BKN050
      TEMPO 0200/0204 3SM SHRA BR BKN025 OVC035
     FM020600 34008KT P6SM VCSH BKN045 OVC060 PROB30 0206/0209 -SHRA
      OVC035
     FM021100 VRB05KT P6SM VCFG FEW045 SCT060 BKN120=



000
FTUS45 KBOU 011141
TAFDEN
TAF
KDEN 011141Z 0112/0218 16008KT P6SM SCT110 BKN220
     FM011600 12011KT P6SM FEW080 BKN110 BKN200
     FM012000 05013KT P6SM VCTS SCT060CB BKN080
      TEMPO 0121/0124 5SM SHRA BR BKN045 OVC060
     FM020000 01014G22KT 6SM -SHRA BR SCT040 BKN050
      TEMPO 0200/0204 3SM SHRA BR BKN025 OVC040
     FM020600 34008KT P6SM VCSH SCT045 BKN060 PROB30 0206/0208 -SHRA
      BKN040
     FM021200 29006KT P6SM VCFG FEW050 SCT070 BKN120
     FM021600 23008KT P6SM FEW120 SCT200=



000
FTUS45 KBOU 011014 AAB
TAFDEN
TAF AMD
KDEN 011014Z 0110/0212 19011KT P6SM SCT110 BKN220
     FM011500 08009KT P6SM SCT080 BKN120
     FM012000 03012KT P6SM VCTS SCT040CB BKN070
      TEMPO 0120/0124 5SM SHRA SCT020 OVC040
     FM020000 36011KT P6SM -SHRA SCT020 BKN040
      TEMPO 0200/0204 5SM SHRA BKN020
     FM020600 33007KT P6SM VCSH SCT040 BKN060 PROB30 0206/0209 -SHRA
      BKN040=



000
FTUS45 KBOU 011014 AAB
TAFDEN
TAF AMD
KDEN 011014Z 0110/0212 19011KT P6SM SCT110 BKN220
     FM011500 08009KT P6SM SCT080 BKN120
     FM012000 03012KT P6SM VCTS SCT040CB BKN070
      TEMPO 0120/0124 5SM SHRA SCT020 OVC040
     FM020000 36011KT P6SM -SHRA SCT020 BKN040
      TEMPO 0200/0204 5SM SHRA BKN020
     FM020600 33007KT P6SM VCSH SCT040 BKN060 PROB30 0206/0209 -SHRA
      BKN040=



000
FTUS45 KBOU 010909 AAA
TAFDEN
TAF AMD
KDEN 010909Z 0109/0212 22011KT P6SM SCT110 BKN220
     FM011500 08008KT P6SM SCT080 BKN120
     FM012000 03011KT P6SM VCTS SCT040CB BKN070
      TEMPO 0120/0124 5SM SHRA SCT020 OVC040
     FM020000 36011KT P6SM -SHRA SCT020 BKN040
      TEMPO 0200/0204 5SM SHRA BKN020
     FM020600 33007KT P6SM VCSH SCT040 BKN060 PROB30 0206/0209 -SHRA
      BKN040=



000
FTUS45 KBOU 010909 AAA
TAFDEN
TAF AMD
KDEN 010909Z 0109/0212 22011KT P6SM SCT110 BKN220
     FM011500 08008KT P6SM SCT080 BKN120
     FM012000 03011KT P6SM VCTS SCT040CB BKN070
      TEMPO 0120/0124 5SM SHRA SCT020 OVC040
     FM020000 36011KT P6SM -SHRA SCT020 BKN040
      TEMPO 0200/0204 5SM SHRA BKN020
     FM020600 33007KT P6SM VCSH SCT040 BKN060 PROB30 0206/0209 -SHRA
      BKN040=



000
FTUS45 KBOU 010529
TAFBJC
TAF
KBJC 010529Z 0106/0206 25008KT P6SM FEW120 BKN200
     FM011500 02007KT P6SM SCT080 BKN120
     FM012000 03011KT P6SM VCTS SCT040CB BKN070
      TEMPO 0120/0124 5SM SHRA SCT020 OVC040
     FM020000 36011KT P6SM -SHRA SCT020 BKN040
      TEMPO 0200/0204 5SM SHRA BKN020=



000
FTUS45 KBOU 010529
TAFBJC
TAF
KBJC 010529Z 0106/0206 25008KT P6SM FEW120 BKN200
     FM011500 02007KT P6SM SCT080 BKN120
     FM012000 03011KT P6SM VCTS SCT040CB BKN070
      TEMPO 0120/0124 5SM SHRA SCT020 OVC040
     FM020000 36011KT P6SM -SHRA SCT020 BKN040
      TEMPO 0200/0204 5SM SHRA BKN020=



000
FTUS45 KBOU 010529
TAFDEN
TAF
KDEN 010529Z 0106/0212 23011KT P6SM SCT110 BKN220
     FM011500 08008KT P6SM SCT080 BKN120
     FM012000 03011KT P6SM VCTS SCT040CB BKN070
      TEMPO 0120/0124 5SM SHRA SCT020 OVC040
     FM020000 36011KT P6SM -SHRA SCT020 BKN040
      TEMPO 0200/0204 5SM SHRA BKN020
     FM020600 33007KT P6SM VCSH SCT040 BKN060 PROB30 0206/0209 -SHRA
      BKN040=



000
FTUS45 KBOU 010529
TAFDEN
TAF
KDEN 010529Z 0106/0212 23011KT P6SM SCT110 BKN220
     FM011500 08008KT P6SM SCT080 BKN120
     FM012000 03011KT P6SM VCTS SCT040CB BKN070
      TEMPO 0120/0124 5SM SHRA SCT020 OVC040
     FM020000 36011KT P6SM -SHRA SCT020 BKN040
      TEMPO 0200/0204 5SM SHRA BKN020
     FM020600 33007KT P6SM VCSH SCT040 BKN060 PROB30 0206/0209 -SHRA
      BKN040=



000
FTUS45 KBOU 010529
TAFAPA
TAF
KAPA 010529Z 0106/0206 VRB04KT P6SM SCT100 BKN200
     FM010900 17007KT P6SM FEW120 BKN200
     FM011500 08008KT P6SM SCT080 BKN120
     FM012000 03011KT P6SM VCTS SCT040CB BKN070
      TEMPO 0120/0124 5SM SHRA SCT020 OVC040
     FM020000 36011KT P6SM -SHRA SCT020 BKN040
      TEMPO 0200/0204 5SM SHRA BKN020=



000
FTUS45 KBOU 010529
TAFAPA
TAF
KAPA 010529Z 0106/0206 VRB04KT P6SM SCT100 BKN200
     FM010900 17007KT P6SM FEW120 BKN200
     FM011500 08008KT P6SM SCT080 BKN120
     FM012000 03011KT P6SM VCTS SCT040CB BKN070
      TEMPO 0120/0124 5SM SHRA SCT020 OVC040
     FM020000 36011KT P6SM -SHRA SCT020 BKN040
      TEMPO 0200/0204 5SM SHRA BKN020=



000
FTUS45 KBOU 010303 AAC
TAFDEN
TAF AMD
KDEN 010303Z 0103/0206 28008KT P6SM SCT080 BKN120
     FM010600 23010KT P6SM SCT080 BKN150
     FM011500 08008KT P6SM SCT080 BKN120
     FM012000 03011KT P6SM VCTS SCT040CB BKN070
      TEMPO 0120/0124 5SM SHRA SCT020 OVC040
     FM020000 36011KT P6SM -SHRA SCT020 BKN040
      TEMPO 0200/0204 5SM SHRA BKN020=



000
FTUS45 KBOU 010303 AAC
TAFDEN
TAF AMD
KDEN 010303Z 0103/0206 28008KT P6SM SCT080 BKN120
     FM010600 23010KT P6SM SCT080 BKN150
     FM011500 08008KT P6SM SCT080 BKN120
     FM012000 03011KT P6SM VCTS SCT040CB BKN070
      TEMPO 0120/0124 5SM SHRA SCT020 OVC040
     FM020000 36011KT P6SM -SHRA SCT020 BKN040
      TEMPO 0200/0204 5SM SHRA BKN020=



000
FTUS45 KBOU 010127 AAB
TAFDEN
TAF AMD
KDEN 010127Z 0101/0206 30015KT P6SM VCSH BKN080 BKN150
      TEMPO 0101/0103 30015G25KT
     FM010300 25008KT P6SM SCT080 BKN150
     FM010600 21010KT P6SM SCT080 BKN150
     FM011500 08008KT P6SM SCT080 BKN120
     FM012000 03011KT P6SM VCTS SCT040CB BKN070
      TEMPO 0120/0124 5SM SHRA SCT020 OVC040
     FM020000 36011KT P6SM -SHRA SCT020 BKN040
      TEMPO 0200/0204 5SM SHRA BKN020=



000
FTUS45 KBOU 010127 AAB
TAFDEN
TAF AMD
KDEN 010127Z 0101/0206 30015KT P6SM VCSH BKN080 BKN150
      TEMPO 0101/0103 30015G25KT
     FM010300 25008KT P6SM SCT080 BKN150
     FM010600 21010KT P6SM SCT080 BKN150
     FM011500 08008KT P6SM SCT080 BKN120
     FM012000 03011KT P6SM VCTS SCT040CB BKN070
      TEMPO 0120/0124 5SM SHRA SCT020 OVC040
     FM020000 36011KT P6SM -SHRA SCT020 BKN040
      TEMPO 0200/0204 5SM SHRA BKN020=



000
FTUS45 KBOU 010118 AAB
TAFBJC
TAF AMD
KBJC 010118Z 0101/0124 29015KT P6SM VCSH BKN080 BKN140
      TEMPO 0101/0103 29020G30KT
     FM010300 25006KT P6SM SCT080 BKN140
     FM011500 02007KT P6SM SCT090 BKN140
     FM012000 03011KT P6SM VCTS SCT040CB BKN070
      TEMPO 0120/0124 5SM SHRA SCT020 OVC040=



000
FTUS45 KBOU 010118 AAB
TAFBJC
TAF AMD
KBJC 010118Z 0101/0124 29015KT P6SM VCSH BKN080 BKN140
      TEMPO 0101/0103 29020G30KT
     FM010300 25006KT P6SM SCT080 BKN140
     FM011500 02007KT P6SM SCT090 BKN140
     FM012000 03011KT P6SM VCTS SCT040CB BKN070
      TEMPO 0120/0124 5SM SHRA SCT020 OVC040=



000
FTUS45 KBOU 010104 AAA
TAFDEN
TAF AMD
KDEN 010104Z 0101/0206 31010KT P6SM VCSH BKN080 BKN150
      TEMPO 0101/0103 31010G20KT
     FM010300 25008KT P6SM SCT080 BKN150
     FM010600 21010KT P6SM SCT080 BKN150
     FM011500 08008KT P6SM SCT080 BKN120
     FM012000 03011KT P6SM VCTS SCT040CB BKN070
      TEMPO 0120/0124 5SM SHRA SCT020 OVC040
     FM020000 36011KT P6SM -SHRA SCT020 BKN040
      TEMPO 0200/0204 5SM SHRA BKN020=



000
FTUS45 KBOU 010102 AAA
TAFBJC
TAF AMD
KBJC 010102Z 0101/0124 29012KT P6SM VCSH BKN080 BKN140
     FM010300 25006KT P6SM SCT080 BKN140
     FM011500 02007KT P6SM SCT090 BKN140
     FM012000 03011KT P6SM VCTS SCT040CB BKN070
      TEMPO 0120/0124 5SM SHRA SCT020 OVC040=



000
FTUS45 KBOU 010102 AAA
TAFBJC
TAF AMD
KBJC 010102Z 0101/0124 29012KT P6SM VCSH BKN080 BKN140
     FM010300 25006KT P6SM SCT080 BKN140
     FM011500 02007KT P6SM SCT090 BKN140
     FM012000 03011KT P6SM VCTS SCT040CB BKN070
      TEMPO 0120/0124 5SM SHRA SCT020 OVC040=



000
FTUS45 KBOU 302320
TAFBJC
TAF
KBJC 302320Z 0100/0124 VRB05KT P6SM SCT080 BKN140
     FM010200 25006KT P6SM SCT080 BKN140
     FM011500 02007KT P6SM SCT090 BKN140
     FM012000 03011KT P6SM VCTS SCT040CB BKN070
      TEMPO 0120/0124 5SM SHRA SCT020 OVC040=



000
FTUS45 KBOU 302320
TAFDEN
TAF
KDEN 302320Z 0100/0206 31008KT P6SM SCT080 BKN150
     FM010200 25008KT P6SM SCT080 BKN150
     FM010600 21010KT P6SM SCT080 BKN150
     FM011500 08008KT P6SM SCT080 BKN120
     FM012000 03011KT P6SM VCTS SCT040CB BKN070
      TEMPO 0120/0124 5SM SHRA SCT020 OVC040
     FM020000 36011KT P6SM -SHRA SCT020 BKN040
      TEMPO 0200/0204 5SM SHRA BKN020=



000
FTUS45 KBOU 302320
TAFDEN
TAF
KDEN 302320Z 0100/0206 31008KT P6SM SCT080 BKN150
     FM010200 25008KT P6SM SCT080 BKN150
     FM010600 21010KT P6SM SCT080 BKN150
     FM011500 08008KT P6SM SCT080 BKN120
     FM012000 03011KT P6SM VCTS SCT040CB BKN070
      TEMPO 0120/0124 5SM SHRA SCT020 OVC040
     FM020000 36011KT P6SM -SHRA SCT020 BKN040
      TEMPO 0200/0204 5SM SHRA BKN020=



000
FTUS45 KBOU 302320
TAFAPA
TAF
KAPA 302320Z 0100/0124 31006KT P6SM SCT080 BKN140
     FM010200 25006KT P6SM SCT080 BKN140
     FM010500 21008KT P6SM SCT080 BKN140
     FM011600 08008KT P6SM SCT090 BKN140
     FM012000 06011KT P6SM VCTS SCT040CB BKN070
      TEMPO 0120/0124 5SM SHRA SCT020 OVC040=



000
FTUS45 KBOU 302320
TAFAPA
TAF
KAPA 302320Z 0100/0124 31006KT P6SM SCT080 BKN140
     FM010200 25006KT P6SM SCT080 BKN140
     FM010500 21008KT P6SM SCT080 BKN140
     FM011600 08008KT P6SM SCT090 BKN140
     FM012000 06011KT P6SM VCTS SCT040CB BKN070
      TEMPO 0120/0124 5SM SHRA SCT020 OVC040=



000
FTUS45 KBOU 302320
TAFBJC
TAF
KBJC 302320Z 0100/0124 VRB05KT P6SM SCT080 BKN140
     FM010200 25006KT P6SM SCT080 BKN140
     FM011500 02007KT P6SM SCT090 BKN140
     FM012000 03011KT P6SM VCTS SCT040CB BKN070
      TEMPO 0120/0124 5SM SHRA SCT020 OVC040=



000
FTUS45 KBOU 302206 AAD
TAFBJC
TAF AMD
KBJC 302206Z 3022/0118 23010KT P6SM SCT090 SCT130 BKN200
     FM010100 25008KT P6SM SCT060 BKN080
     FM010800 25007KT P6SM SCT100 BKN140
     FM011500 01007KT P6SM SCT090 BKN140=



000
FTUS45 KBOU 302206 AAD
TAFBJC
TAF AMD
KBJC 302206Z 3022/0118 23010KT P6SM SCT090 SCT130 BKN200
     FM010100 25008KT P6SM SCT060 BKN080
     FM010800 25007KT P6SM SCT100 BKN140
     FM011500 01007KT P6SM SCT090 BKN140=



000
FTUS45 KBOU 302101 AAC
TAFDEN
TAF AMD
KDEN 302101Z 3021/0124 29011G18KT P6SM FEW080 SCT120 BKN200
     FM302300 30010KT P6SM SCT080 BKN120
     FM010100 25008KT P6SM SCT060 BKN080
     FM010400 21008KT P6SM SCT060 BKN100
     FM010800 21010KT P6SM SCT100 BKN140
     FM011500 08008KT P6SM SCT090 BKN140
     FM012000 02011KT P6SM SCT040 BKN070
      TEMPO 0120/0124 SHRA SCT020 OVC040=



000
FTUS45 KBOU 302101 AAC
TAFDEN
TAF AMD
KDEN 302101Z 3021/0124 29011G18KT P6SM FEW080 SCT120 BKN200
     FM302300 30010KT P6SM SCT080 BKN120
     FM010100 25008KT P6SM SCT060 BKN080
     FM010400 21008KT P6SM SCT060 BKN100
     FM010800 21010KT P6SM SCT100 BKN140
     FM011500 08008KT P6SM SCT090 BKN140
     FM012000 02011KT P6SM SCT040 BKN070
      TEMPO 0120/0124 SHRA SCT020 OVC040=



000
FTUS45 KBOU 302001 AAC
TAFBJC
TAF AMD
KBJC 302001Z 3020/0118 26015G25KT P6SM SCT090 SCT130 BKN200
     FM010100 25008KT P6SM SCT060 BKN080
     FM010800 25007KT P6SM SCT100 BKN140
     FM011500 01007KT P6SM SCT090 BKN140=



000
FTUS45 KBOU 302001 AAC
TAFBJC
TAF AMD
KBJC 302001Z 3020/0118 26015G25KT P6SM SCT090 SCT130 BKN200
     FM010100 25008KT P6SM SCT060 BKN080
     FM010800 25007KT P6SM SCT100 BKN140
     FM011500 01007KT P6SM SCT090 BKN140=



000
FTUS45 KBOU 301958 AAA
TAFAPA
TAF AMD
KAPA 301958Z 3020/0118 32015KT P6SM SCT090 BKN200
     FM010100 25008KT P6SM VCSH SCT060 BKN080
     FM010400 19007KT P6SM SCT060 BKN100
     FM010800 21008KT P6SM SCT100 BKN140
     FM011500 08008KT P6SM SCT090 BKN140=



000
FTUS45 KBOU 301958 AAA
TAFAPA
TAF AMD
KAPA 301958Z 3020/0118 32015KT P6SM SCT090 BKN200
     FM010100 25008KT P6SM VCSH SCT060 BKN080
     FM010400 19007KT P6SM SCT060 BKN100
     FM010800 21008KT P6SM SCT100 BKN140
     FM011500 08008KT P6SM SCT090 BKN140=



000
FTUS45 KBOU 301939 AAB
TAFDEN
TAF AMD
KDEN 301939Z 3020/0124 28012G22KT P6SM FEW080 SCT120 BKN200
     FM302300 30010KT P6SM SCT080 BKN120
     FM010100 25008KT P6SM SCT060 BKN080
     FM010400 21008KT P6SM SCT060 BKN100
     FM010800 21010KT P6SM SCT100 BKN140
     FM011500 08008KT P6SM SCT090 BKN140
     FM012000 02011KT P6SM SCT040 BKN070
      TEMPO 0120/0124 SHRA SCT020 OVC040=



000
FTUS45 KBOU 301939 AAB
TAFDEN
TAF AMD
KDEN 301939Z 3020/0124 28012G22KT P6SM FEW080 SCT120 BKN200
     FM302300 30010KT P6SM SCT080 BKN120
     FM010100 25008KT P6SM SCT060 BKN080
     FM010400 21008KT P6SM SCT060 BKN100
     FM010800 21010KT P6SM SCT100 BKN140
     FM011500 08008KT P6SM SCT090 BKN140
     FM012000 02011KT P6SM SCT040 BKN070
      TEMPO 0120/0124 SHRA SCT020 OVC040=



000
FTUS45 KBOU 301837 AAB
TAFBJC
TAF AMD
KBJC 301837Z 3019/0118 28012G24KT P6SM SCT090 SCT130 BKN200
     FM010100 25008KT P6SM SCT060 BKN080
     FM010800 25007KT P6SM SCT100 BKN140
     FM011500 01007KT P6SM SCT090 BKN140=



000
FTUS45 KBOU 301837 AAB
TAFBJC
TAF AMD
KBJC 301837Z 3019/0118 28012G24KT P6SM SCT090 SCT130 BKN200
     FM010100 25008KT P6SM SCT060 BKN080
     FM010800 25007KT P6SM SCT100 BKN140
     FM011500 01007KT P6SM SCT090 BKN140=



000
FTUS45 KBOU 301833 AAA
TAFBJC
TAF AMD
KBJC 301833Z 3019/0118 01008KT P6SM FEW090 SCT220
     FM301900 29012G20KT P6SM SCT090 SCT130 BKN200
     FM010100 25008KT P6SM SCT060 BKN080
     FM010800 25007KT P6SM SCT100 BKN140
     FM011500 01007KT P6SM SCT090 BKN140=



000
FTUS45 KBOU 301833 AAA
TAFBJC
TAF AMD
KBJC 301833Z 3019/0118 01008KT P6SM FEW090 SCT220
     FM301900 29012G20KT P6SM SCT090 SCT130 BKN200
     FM010100 25008KT P6SM SCT060 BKN080
     FM010800 25007KT P6SM SCT100 BKN140
     FM011500 01007KT P6SM SCT090 BKN140=



000
FTUS45 KBOU 301832 AAA
TAFDEN
TAF AMD
KDEN 301832Z 3019/0124 33007KT P6SM FEW090 SCT200
     FM302000 30012KT P6SM FEW080 SCT120 BKN200
     FM010100 25008KT P6SM SCT060 BKN080
     FM010400 21008KT P6SM SCT060 BKN100
     FM010800 21010KT P6SM SCT100 BKN140
     FM011500 08008KT P6SM SCT090 BKN140
     FM012000 02011KT P6SM SCT040 BKN070
      TEMPO 0120/0124 SHRA SCT020 OVC040=



000
FTUS45 KBOU 301832 AAA
TAFDEN
TAF AMD
KDEN 301832Z 3019/0124 33007KT P6SM FEW090 SCT200
     FM302000 30012KT P6SM FEW080 SCT120 BKN200
     FM010100 25008KT P6SM SCT060 BKN080
     FM010400 21008KT P6SM SCT060 BKN100
     FM010800 21010KT P6SM SCT100 BKN140
     FM011500 08008KT P6SM SCT090 BKN140
     FM012000 02011KT P6SM SCT040 BKN070
      TEMPO 0120/0124 SHRA SCT020 OVC040=



000
FTUS45 KBOU 301732
TAFBJC
TAF
KBJC 301732Z 3018/0118 01008KT P6SM FEW090 SCT220
     FM302100 30011KT P6SM SCT090 SCT130
     FM010100 25008KT P6SM SCT060 BKN080
     FM010800 25007KT P6SM SCT100 BKN140
     FM011500 01007KT P6SM SCT090 BKN140=



000
FTUS45 KBOU 301732
TAFDEN
TAF
KDEN 301732Z 3018/0124 01008KT P6SM FEW090 SCT200
     FM302000 30012KT P6SM FEW080 SCT120 BKN200
     FM010100 25008KT P6SM SCT060 BKN080
     FM010400 21008KT P6SM SCT060 BKN100
     FM010800 21010KT P6SM SCT100 BKN140
     FM011500 08008KT P6SM SCT090 BKN140
     FM012000 02011KT P6SM SCT040 BKN070
      TEMPO 0120/0124 SHRA SCT020 OVC040=



000
FTUS45 KBOU 301732
TAFAPA
TAF
KAPA 301732Z 3018/0118 24010KT P6SM FEW090 SCT200
     FM301900 30011KT P6SM SCT090 BKN200
     FM010100 25008KT P6SM VCSH SCT060 BKN080
     FM010400 19007KT P6SM SCT060 BKN100
     FM010800 21008KT P6SM SCT100 BKN140
     FM011500 08008KT P6SM SCT090 BKN140=



000
FTUS45 KBOU 301732
TAFBJC
TAF
KBJC 301732Z 3018/0118 01008KT P6SM FEW090 SCT220
     FM302100 30011KT P6SM SCT090 SCT130
     FM010100 25008KT P6SM SCT060 BKN080
     FM010800 25007KT P6SM SCT100 BKN140
     FM011500 01007KT P6SM SCT090 BKN140=



000
FTUS45 KBOU 301732
TAFAPA
TAF
KAPA 301732Z 3018/0118 24010KT P6SM FEW090 SCT200
     FM301900 30011KT P6SM SCT090 BKN200
     FM010100 25008KT P6SM VCSH SCT060 BKN080
     FM010400 19007KT P6SM SCT060 BKN100
     FM010800 21008KT P6SM SCT100 BKN140
     FM011500 08008KT P6SM SCT090 BKN140=



000
FTUS45 KBOU 301732
TAFDEN
TAF
KDEN 301732Z 3018/0124 01008KT P6SM FEW090 SCT200
     FM302000 30012KT P6SM FEW080 SCT120 BKN200
     FM010100 25008KT P6SM SCT060 BKN080
     FM010400 21008KT P6SM SCT060 BKN100
     FM010800 21010KT P6SM SCT100 BKN140
     FM011500 08008KT P6SM SCT090 BKN140
     FM012000 02011KT P6SM SCT040 BKN070
      TEMPO 0120/0124 SHRA SCT020 OVC040=



000
FTUS45 KBOU 301724 AAA
TAFBJC
TAF AMD
KBJC 301724Z 3017/0112 01008KT P6SM FEW090 SCT220
     FM302100 30011KT P6SM SCT090 SCT130
     FM010000 34008KT P6SM SCT070 BKN100
     FM010500 24008KT P6SM SCT090 BKN130
     FM011000 18007KT P6SM SCT130 BKN200=



000
FTUS45 KBOU 301724 AAA
TAFBJC
TAF AMD
KBJC 301724Z 3017/0112 01008KT P6SM FEW090 SCT220
     FM302100 30011KT P6SM SCT090 SCT130
     FM010000 34008KT P6SM SCT070 BKN100
     FM010500 24008KT P6SM SCT090 BKN130
     FM011000 18007KT P6SM SCT130 BKN200=



000
FTUS45 KBOU 301640 AAB
TAFDEN
TAF AMD
KDEN 301640Z 3017/0118 28012KT P6SM FEW090 SCT200
     FM301800 01008KT P6SM FEW090 SCT200
     FM302000 30012KT P6SM FEW090 SCT120 BKN200
     FM010100 27008KT P6SM SCT080 BKN120
     FM010600 21008KT P6SM SCT120 BKN180
     FM011600 15007KT P6SM SCT090 BKN140=



000
FTUS45 KBOU 301640 AAB
TAFDEN
TAF AMD
KDEN 301640Z 3017/0118 28012KT P6SM FEW090 SCT200
     FM301800 01008KT P6SM FEW090 SCT200
     FM302000 30012KT P6SM FEW090 SCT120 BKN200
     FM010100 27008KT P6SM SCT080 BKN120
     FM010600 21008KT P6SM SCT120 BKN180
     FM011600 15007KT P6SM SCT090 BKN140=



000
FTUS45 KBOU 301507 AAA
TAFDEN
TAF AMD
KDEN 301507Z 3015/0118 23010KT P6SM FEW090
     FM301700 26011KT P6SM FEW120 SCT200
     FM302100 30012KT P6SM SCT120 BKN160
     FM010100 27008KT P6SM SCT080 BKN120
     FM010600 21008KT P6SM SCT120 BKN180
     FM011600 15007KT P6SM SCT090 BKN140=



000
FTUS45 KBOU 301139
TAFBJC
TAF
KBJC 301139Z 3012/0112 26015G28KT P6SM SKC
     FM301700 28014KT P6SM FEW140 SCT220
     FM302200 30011KT P6SM SCT090 SCT130
     FM010000 34008KT P6SM SCT070 BKN100
     FM010500 24008KT P6SM SCT090 BKN130
     FM011000 18007KT P6SM SCT130 BKN200=



000
FTUS45 KBOU 301139
TAFDEN
TAF
KDEN 301139Z 3012/0118 17010KT P6SM FEW220
     FM301400 22008KT P6SM SCT220
     FM301700 26012KT P6SM FEW120 SCT200
     FM302200 31010KT P6SM SCT120 BKN160
     FM010100 27008KT P6SM SCT080 BKN120
     FM010600 21008KT P6SM SCT120 BKN180
     FM011600 15007KT P6SM SCT090 BKN140=



000
FTUS45 KBOU 301139
TAFAPA
TAF
KAPA 301139Z 3012/0112 18007KT P6SM FEW100 SCT220
     FM301700 24007KT P6SM FEW120 SCT200
     FM302200 26010KT P6SM SCT100 BKN160
     FM010100 34007KT P6SM SCT070 BKN100
     FM010500 18006KT P6SM SCT080 BKN130=



000
FTUS45 KBOU 301139
TAFDEN
TAF
KDEN 301139Z 3012/0118 17010KT P6SM FEW220
     FM301400 22008KT P6SM SCT220
     FM301700 26012KT P6SM FEW120 SCT200
     FM302200 31010KT P6SM SCT120 BKN160
     FM010100 27008KT P6SM SCT080 BKN120
     FM010600 21008KT P6SM SCT120 BKN180
     FM011600 15007KT P6SM SCT090 BKN140=



000
FTUS45 KBOU 301139
TAFBJC
TAF
KBJC 301139Z 3012/0112 26015G28KT P6SM SKC
     FM301700 28014KT P6SM FEW140 SCT220
     FM302200 30011KT P6SM SCT090 SCT130
     FM010000 34008KT P6SM SCT070 BKN100
     FM010500 24008KT P6SM SCT090 BKN130
     FM011000 18007KT P6SM SCT130 BKN200=



000
FTUS45 KBOU 301139
TAFAPA
TAF
KAPA 301139Z 3012/0112 18007KT P6SM FEW100 SCT220
     FM301700 24007KT P6SM FEW120 SCT200
     FM302200 26010KT P6SM SCT100 BKN160
     FM010100 34007KT P6SM SCT070 BKN100
     FM010500 18006KT P6SM SCT080 BKN130=



000
FTUS45 KBOU 301030 AAD
TAFBJC
TAF AMD
KBJC 301030Z 3011/0106 26015G28KT P6SM SKC
     FM301700 29014KT P6SM FEW140 SCT200
     FM302300 32010KT P6SM SCT090 SCT130
     FM010000 35007KT P6SM SCT070 BKN100
     FM010500 24008KT P6SM SCT090 BKN130=



000
FTUS45 KBOU 301030 AAD
TAFBJC
TAF AMD
KBJC 301030Z 3011/0106 26015G28KT P6SM SKC
     FM301700 29014KT P6SM FEW140 SCT200
     FM302300 32010KT P6SM SCT090 SCT130
     FM010000 35007KT P6SM SCT070 BKN100
     FM010500 24008KT P6SM SCT090 BKN130=



000
FTUS45 KBOU 300904 AAC
TAFDEN
TAF AMD
KDEN 300904Z 3009/0112 17011KT P6SM FEW200
     FM301400 21008KT P6SM SCT200
     FM301700 27007KT P6SM FEW140 SCT200
     FM302200 33014KT P6SM SCT120 BKN200
     FM010100 29012KT P6SM SCT080 BKN120
     FM010600 21009KT P6SM SCT120 BKN180=



000
FTUS45 KBOU 300904 AAC
TAFDEN
TAF AMD
KDEN 300904Z 3009/0112 17011KT P6SM FEW200
     FM301400 21008KT P6SM SCT200
     FM301700 27007KT P6SM FEW140 SCT200
     FM302200 33014KT P6SM SCT120 BKN200
     FM010100 29012KT P6SM SCT080 BKN120
     FM010600 21009KT P6SM SCT120 BKN180=



000
FTUS45 KBOU 300838 AAB
TAFDEN
TAF AMD
KDEN 300838Z 3009/0112 18010KT P6SM FEW200
     FM301400 23008KT P6SM SCT200
     FM301700 27007KT P6SM FEW140 SCT200
     FM302200 33014KT P6SM SCT120 BKN200
     FM010100 29012KT P6SM SCT080 BKN120
     FM010600 21009KT P6SM SCT120 BKN180=



000
FTUS45 KBOU 300838 AAB
TAFDEN
TAF AMD
KDEN 300838Z 3009/0112 18010KT P6SM FEW200
     FM301400 23008KT P6SM SCT200
     FM301700 27007KT P6SM FEW140 SCT200
     FM302200 33014KT P6SM SCT120 BKN200
     FM010100 29012KT P6SM SCT080 BKN120
     FM010600 21009KT P6SM SCT120 BKN180=



000
FTUS45 KBOU 300750 AAC
TAFBJC
TAF AMD
KBJC 300750Z 3008/0106 19012G20KT P6SM FEW090
     FM301100 26014G25KT P6SM FEW140
     FM301800 29012KT P6SM SCT200
     FM302300 31009KT P6SM SCT090 SCT130
     FM010000 35007KT P6SM SCT070 BKN100
     FM010500 24008KT P6SM SCT090 BKN130=



000
FTUS45 KBOU 300750 AAC
TAFBJC
TAF AMD
KBJC 300750Z 3008/0106 19012G20KT P6SM FEW090
     FM301100 26014G25KT P6SM FEW140
     FM301800 29012KT P6SM SCT200
     FM302300 31009KT P6SM SCT090 SCT130
     FM010000 35007KT P6SM SCT070 BKN100
     FM010500 24008KT P6SM SCT090 BKN130=



000
FTUS45 KBOU 300645 AAB
TAFBJC
TAF AMD
KBJC 300645Z 3007/0106 20007KT P6SM FEW060 SCT090
     FM301100 26012G22KT P6SM FEW140
     FM301800 29008KT P6SM SCT200
     FM302200 32009KT P6SM SCT090 SCT130
     FM010000 35007KT P6SM SCT070 BKN100
     FM010500 24008KT P6SM SCT090 BKN130=



000
FTUS45 KBOU 300600 AAA
TAFAPA
TAF AMD
KAPA 300600Z 3006/0106 10005KT P6SM FEW040 SCT060 BKN120
     FM300700 14007KT P6SM SCT070 BKN120
     FM301000 VRB05KT P6SM SCT080 SCT140
     FM301700 24007KT P6SM FEW140 SCT200
     FM302200 28008KT P6SM SCT090 BKN140
     FM010100 34007KT P6SM SCT070 BKN090
     FM010500 18006KT P6SM SCT090 BKN130=



000
FTUS45 KBOU 300600 AAA
TAFAPA
TAF AMD
KAPA 300600Z 3006/0106 10005KT P6SM FEW040 SCT060 BKN120
     FM300700 14007KT P6SM SCT070 BKN120
     FM301000 VRB05KT P6SM SCT080 SCT140
     FM301700 24007KT P6SM FEW140 SCT200
     FM302200 28008KT P6SM SCT090 BKN140
     FM010100 34007KT P6SM SCT070 BKN090
     FM010500 18006KT P6SM SCT090 BKN130=



000
FTUS45 KBOU 300557 AAA
TAFDEN
TAF AMD
KDEN 300557Z 3006/0112 15007KT P6SM SCT060 BKN120
     FM300700 18008KT P6SM SCT080 SCT120
     FM300900 23008KT P6SM FEW080 SCT140
     FM301700 26007KT P6SM FEW140 SCT200
     FM302200 30009KT P6SM SCT100 BKN140
     FM010100 35011KT P6SM SCT070 BKN100
     FM010600 21009KT P6SM SCT100 BKN150=



000
FTUS45 KBOU 300557 AAA
TAFDEN
TAF AMD
KDEN 300557Z 3006/0112 15007KT P6SM SCT060 BKN120
     FM300700 18008KT P6SM SCT080 SCT120
     FM300900 23008KT P6SM FEW080 SCT140
     FM301700 26007KT P6SM FEW140 SCT200
     FM302200 30009KT P6SM SCT100 BKN140
     FM010100 35011KT P6SM SCT070 BKN100
     FM010600 21009KT P6SM SCT100 BKN150=



000
FTUS45 KBOU 300551 AAA
TAFBJC
TAF AMD
KBJC 300551Z 3006/0106 14006KT P6SM BKN008 BKN014 OVC080
      TEMPO 3007/3008 SCT015 BKN040 BKN080
     FM300800 30007KT P6SM SCT050 BKN080 BKN120
     FM301200 24008KT P6SM FEW080 SCT140
     FM301800 28011KT P6SM FEW140 SCT200
     FM302200 32010KT P6SM SCT090 BKN140
     FM010100 35007KT P6SM SCT070 BKN100
     FM010500 24008KT P6SM SCT090 BKN130=



000
FTUS45 KBOU 300551 AAA
TAFBJC
TAF AMD
KBJC 300551Z 3006/0106 14006KT P6SM BKN008 BKN014 OVC080
      TEMPO 3007/3008 SCT015 BKN040 BKN080
     FM300800 30007KT P6SM SCT050 BKN080 BKN120
     FM301200 24008KT P6SM FEW080 SCT140
     FM301800 28011KT P6SM FEW140 SCT200
     FM302200 32010KT P6SM SCT090 BKN140
     FM010100 35007KT P6SM SCT070 BKN100
     FM010500 24008KT P6SM SCT090 BKN130=



000
FTUS45 KBOU 300537
TAFBJC
TAF
KBJC 300537Z 3006/0106 17007KT P6SM FEW012 SCT060 BKN090
     FM300800 30010KT P6SM SCT070 BKN120
     FM301200 24008KT P6SM FEW080 SCT140
     FM301800 28011KT P6SM FEW140 SCT200
     FM302200 32010KT P6SM SCT090 BKN140
     FM010100 35007KT P6SM SCT070 BKN100
     FM010500 24008KT P6SM SCT090 BKN130=



000
FTUS45 KBOU 300537
TAFAPA
TAF
KAPA 300537Z 3006/0106 10005KT P6SM VCSH FEW012 BKN035 BKN060
     FM300700 12007KT P6SM SCT050 BKN080
     FM300900 18006KT P6SM SCT080 BKN140
     FM301700 24007KT P6SM FEW120 SCT200
     FM302200 28008KT P6SM SCT090 BKN130
     FM010100 34007KT P6SM SCT070 BKN100
     FM010500 18006KT P6SM SCT090 BKN130=



000
FTUS45 KBOU 300537
TAFDEN
TAF
KDEN 300537Z 3006/0112 05007KT P6SM VCSH SCT040 BKN060
     FM300700 12009KT P6SM SCT060 BKN080
     FM300900 20008KT P6SM SCT080 BKN120
     FM301700 26007KT P6SM FEW140 SCT200
     FM302200 30009KT P6SM SCT100 BKN140
     FM010100 35011KT P6SM SCT070 BKN100
     FM010600 21009KT P6SM SCT100 BKN150=



000
FTUS45 KBOU 300537
TAFDEN
TAF
KDEN 300537Z 3006/0112 05007KT P6SM VCSH SCT040 BKN060
     FM300700 12009KT P6SM SCT060 BKN080
     FM300900 20008KT P6SM SCT080 BKN120
     FM301700 26007KT P6SM FEW140 SCT200
     FM302200 30009KT P6SM SCT100 BKN140
     FM010100 35011KT P6SM SCT070 BKN100
     FM010600 21009KT P6SM SCT100 BKN150=



000
FTUS45 KBOU 300537
TAFBJC
TAF
KBJC 300537Z 3006/0106 17007KT P6SM FEW012 SCT060 BKN090
     FM300800 30010KT P6SM SCT070 BKN120
     FM301200 24008KT P6SM FEW080 SCT140
     FM301800 28011KT P6SM FEW140 SCT200
     FM302200 32010KT P6SM SCT090 BKN140
     FM010100 35007KT P6SM SCT070 BKN100
     FM010500 24008KT P6SM SCT090 BKN130=



000
FTUS45 KBOU 300537
TAFAPA
TAF
KAPA 300537Z 3006/0106 10005KT P6SM VCSH FEW012 BKN035 BKN060
     FM300700 12007KT P6SM SCT050 BKN080
     FM300900 18006KT P6SM SCT080 BKN140
     FM301700 24007KT P6SM FEW120 SCT200
     FM302200 28008KT P6SM SCT090 BKN130
     FM010100 34007KT P6SM SCT070 BKN100
     FM010500 18006KT P6SM SCT090 BKN130=



000
FTUS45 KBOU 300428 AAE
TAFDEN
TAF AMD
KDEN 300428Z 3004/0106 33012G20KT 4SM SHRA BR SCT013 OVC035
     FM300500 30010G17KT P6SM -SHRA SCT020 BKN035 BKN060
     FM300600 27008G14KT P6SM SCT040 BKN060
     FM300800 24010KT P6SM SCT060 BKN120
     FM301700 21007KT P6SM FEW070 SCT120
     FM302100 33008KT P6SM SCT070 SCT120
     FM010200 20008KT P6SM FEW070 BKN120=



000
FTUS45 KBOU 300428 AAE
TAFDEN
TAF AMD
KDEN 300428Z 3004/0106 33012G20KT 4SM SHRA BR SCT013 OVC035
     FM300500 30010G17KT P6SM -SHRA SCT020 BKN035 BKN060
     FM300600 27008G14KT P6SM SCT040 BKN060
     FM300800 24010KT P6SM SCT060 BKN120
     FM301700 21007KT P6SM FEW070 SCT120
     FM302100 33008KT P6SM SCT070 SCT120
     FM010200 20008KT P6SM FEW070 BKN120=



000
FTUS45 KBOU 300425 AAD
TAFBJC
TAF AMD
KBJC 300425Z 3004/3024 35007KT P6SM -SHRA SCT020 BKN035 BKN060
     FM300500 32013KT P6SM VCSH SCT040 BKN060
     FM300700 28014G24KT P6SM SCT060 BKN100
     FM301000 24008KT P6SM SCT070 BKN120
     FM301800 28007KT P6SM FEW070 SCT120
     FM302200 33008KT P6SM SCT070 SCT120=



000
FTUS45 KBOU 300425 AAD
TAFBJC
TAF AMD
KBJC 300425Z 3004/3024 35007KT P6SM -SHRA SCT020 BKN035 BKN060
     FM300500 32013KT P6SM VCSH SCT040 BKN060
     FM300700 28014G24KT P6SM SCT060 BKN100
     FM301000 24008KT P6SM SCT070 BKN120
     FM301800 28007KT P6SM FEW070 SCT120
     FM302200 33008KT P6SM SCT070 SCT120=



000
FTUS45 KBOU 300419 AAD
TAFAPA
TAF AMD
KAPA 300419Z 3004/3024 20010G17KT P6SM -TSRA SCT012 BKN035CB OVC050
      TEMPO 3005/3006 -SHRA SCT020 BKN035 OVC060
     FM300600 19010KT P6SM SCT040 BKN060
     FM300900 18008KT P6SM SCT060 BKN120
     FM301700 25007KT P6SM FEW070 SCT120
     FM302100 33008KT P6SM SCT070 SCT120=



000
FTUS45 KBOU 300419 AAD
TAFAPA
TAF AMD
KAPA 300419Z 3004/3024 20010G17KT P6SM -TSRA SCT012 BKN035CB OVC050
      TEMPO 3005/3006 -SHRA SCT020 BKN035 OVC060
     FM300600 19010KT P6SM SCT040 BKN060
     FM300900 18008KT P6SM SCT060 BKN120
     FM301700 25007KT P6SM FEW070 SCT120
     FM302100 33008KT P6SM SCT070 SCT120=



000
FTUS45 KBOU 300413 CCA
TAFDEN
TAF COR
KDEN 300413Z 3004/0106 30014G25KT 3SM +TSRA BR SCT020 OVC035CB
     FM300500 28013G23KT 5SM -SHRA SCT015 BKN035 OVC050
     FM300600 27015G28KT P6SM VCSH SCT030 BKN060
     FM300800 25010KT P6SM SCT060 BKN120
     FM301700 21007KT P6SM FEW070 SCT120
     FM302100 33008KT P6SM SCT070 SCT120
     FM010200 20008KT P6SM FEW070 BKN120=



000
FTUS45 KBOU 300413 CCA
TAFDEN
TAF COR
KDEN 300413Z 3004/0106 30014G25KT 3SM +TSRA BR SCT020 OVC035CB
     FM300500 28013G23KT 5SM -SHRA SCT015 BKN035 OVC050
     FM300600 27015G28KT P6SM VCSH SCT030 BKN060
     FM300800 25010KT P6SM SCT060 BKN120
     FM301700 21007KT P6SM FEW070 SCT120
     FM302100 33008KT P6SM SCT070 SCT120
     FM010200 20008KT P6SM FEW070 BKN120=



000
FTUS45 KBOU 300411 AAD
TAFDEN
TAF AMD
KDEN 300411Z 3004/0106 30014G25KT 3SM +TSRA BR SCT020 OVC035CB
     FM300500 28013G23KT 5SM -SHRA SCT015 BKN035 OVC050
     FM300530 27010G20KT P6SM VCSH SCT030 BKN060
     FM300600 21010KT P6SM SCT060 BKN120
     FM301700 25007KT P6SM FEW070 SCT120
     FM302100 33008KT P6SM SCT070 SCT120
     FM010200 20008KT P6SM FEW070 BKN120=



000
FTUS45 KBOU 300411 AAD
TAFDEN
TAF AMD
KDEN 300411Z 3004/0106 30014G25KT 3SM +TSRA BR SCT020 OVC035CB
     FM300500 28013G23KT 5SM -SHRA SCT015 BKN035 OVC050
     FM300530 27010G20KT P6SM VCSH SCT030 BKN060
     FM300600 21010KT P6SM SCT060 BKN120
     FM301700 25007KT P6SM FEW070 SCT120
     FM302100 33008KT P6SM SCT070 SCT120
     FM010200 20008KT P6SM FEW070 BKN120=



000
FTUS45 KBOU 300345 CCA
TAFAPA
TAF COR
KAPA 300345Z 3004/3024 01012G20KT P6SM VCTS SCT009 BKN035CB OVC060
      TEMPO 3004/3005 -TSRA SCT009 BKN015CB
     FM300500 27010KT P6SM SCT030 BKN060
     FM300600 21008KT P6SM SCT060 BKN120
     FM301700 25007KT P6SM FEW070 SCT120
     FM302100 33008KT P6SM SCT070 SCT120=



000
FTUS45 KBOU 300345 CCA
TAFAPA
TAF COR
KAPA 300345Z 3004/3024 01012G20KT P6SM VCTS SCT009 BKN035CB OVC060
      TEMPO 3004/3005 -TSRA SCT009 BKN015CB
     FM300500 27010KT P6SM SCT030 BKN060
     FM300600 21008KT P6SM SCT060 BKN120
     FM301700 25007KT P6SM FEW070 SCT120
     FM302100 33008KT P6SM SCT070 SCT120=



000
FTUS45 KBOU 300344 AAC
TAFDEN
TAF AMD
KDEN 300344Z 3004/0106 34018G26KT P6SM VCTS SCT015CB OVC035
      TEMPO 3004/3005 -SHRA BKN015
     FM300530 28018G26KT P6SM VCSH SCT030 BKN060
     FM300600 21010KT P6SM SCT060 BKN120
     FM301700 25007KT P6SM FEW070 SCT120
     FM302100 33008KT P6SM SCT070 SCT120
     FM010200 20008KT P6SM FEW070 BKN120=



000
FTUS45 KBOU 300344 AAC
TAFDEN
TAF AMD
KDEN 300344Z 3004/0106 34018G26KT P6SM VCTS SCT015CB OVC035
      TEMPO 3004/3005 -SHRA BKN015
     FM300530 28018G26KT P6SM VCSH SCT030 BKN060
     FM300600 21010KT P6SM SCT060 BKN120
     FM301700 25007KT P6SM FEW070 SCT120
     FM302100 33008KT P6SM SCT070 SCT120
     FM010200 20008KT P6SM FEW070 BKN120=



000
FTUS45 KBOU 300343 AAC
TAFBJC
TAF AMD
KBJC 300343Z 3004/3024 30010KT P6SM VCSH SCT015 BKN030 OVC050
      TEMPO 3004/3005 -RA BKN015
     FM300530 27012G24KT P6SM VCSH SCT025 BKN060
     FM300600 21010KT P6SM SCT060 BKN120
     FM301800 25007KT P6SM FEW070 SCT120
     FM302200 33008KT P6SM SCT070 SCT120=



000
FTUS45 KBOU 300343 AAC
TAFBJC
TAF AMD
KBJC 300343Z 3004/3024 30010KT P6SM VCSH SCT015 BKN030 OVC050
      TEMPO 3004/3005 -RA BKN015
     FM300530 27012G24KT P6SM VCSH SCT025 BKN060
     FM300600 21010KT P6SM SCT060 BKN120
     FM301800 25007KT P6SM FEW070 SCT120
     FM302200 33008KT P6SM SCT070 SCT120=



000
FTUS45 KBOU 300342 AAC
TAFAPA
TAF AMD
KAPA 300342Z 3004/3024 33012G20KT P6SM VCTS SCT009 BKN035CB OVC060
      TEMPO 3004/3005 -TSRA SCT009 BKN015CB
     FM300500 27010KT P6SM SCT030 BKN060
     FM300600 21008KT P6SM SCT060 BKN120
     FM301700 25007KT P6SM FEW070 SCT120
     FM302100 33008KT P6SM SCT070 SCT120=



000
FTUS45 KBOU 300342 AAC
TAFAPA
TAF AMD
KAPA 300342Z 3004/3024 33012G20KT P6SM VCTS SCT009 BKN035CB OVC060
      TEMPO 3004/3005 -TSRA SCT009 BKN015CB
     FM300500 27010KT P6SM SCT030 BKN060
     FM300600 21008KT P6SM SCT060 BKN120
     FM301700 25007KT P6SM FEW070 SCT120
     FM302100 33008KT P6SM SCT070 SCT120=



000
FTUS45 KBOU 300214 AAB
TAFBJC
TAF AMD
KBJC 300214Z 3002/3024 30010G18KT P6SM SCT015 BKN025 OVC080
      TEMPO 3002/3004 -RA BKN015
     FM300400 27012G24KT P6SM SCT025 BKN060
     FM300600 21010KT P6SM SCT060 BKN120
     FM301800 25007KT P6SM FEW070 SCT120
     FM302200 33008KT P6SM SCT070 SCT120=



000
FTUS45 KBOU 300214 AAB
TAFAPA
TAF AMD
KAPA 300214Z 3002/3024 33009KT P6SM SCT015 BKN035 OVC060
      TEMPO 3002/3004 -RA BKN015
     FM300400 27010KT P6SM SCT030 BKN060
     FM300600 21008KT P6SM SCT060 BKN120
     FM301700 25007KT P6SM FEW070 SCT120
     FM302100 33008KT P6SM SCT070 SCT120=



000
FTUS45 KBOU 300214 AAB
TAFDEN
TAF AMD
KDEN 300214Z 3002/0106 34018G26KT P6SM SCT015 OVC035
      TEMPO 3002/3004 -RA BKN015
     FM300400 28018G26KT P6SM SCT030 BKN060
     FM300600 21010KT P6SM SCT060 BKN120
     FM301700 25007KT P6SM FEW070 SCT120
     FM302100 33008KT P6SM SCT070 SCT120
     FM010200 20008KT P6SM FEW070 BKN120=



000
FTUS45 KBOU 300214 AAB
TAFBJC
TAF AMD
KBJC 300214Z 3002/3024 30010G18KT P6SM SCT015 BKN025 OVC080
      TEMPO 3002/3004 -RA BKN015
     FM300400 27012G24KT P6SM SCT025 BKN060
     FM300600 21010KT P6SM SCT060 BKN120
     FM301800 25007KT P6SM FEW070 SCT120
     FM302200 33008KT P6SM SCT070 SCT120=



000
FTUS45 KBOU 300115 AAA
TAFAPA
TAF AMD
KAPA 300115Z 3001/3024 21007KT P6SM FEW015 BKN060
     FM300200 33009KT P6SM FEW030 BKN080
     FM300600 21008KT P6SM FEW120
     FM301700 25007KT P6SM FEW070 SCT120
     FM302100 33008KT P6SM SCT070 SCT120=



000
FTUS45 KBOU 300115 AAA
TAFBJC
TAF AMD
KBJC 300115Z 3001/3024 33007KT P6SM VCSH SCT020 OVC030
     FM300200 30010G18KT P6SM SCT030 BKN080
     FM300400 27012G24KT P6SM FEW030 BKN100
     FM300600 21010KT P6SM FEW120
     FM301800 25007KT P6SM FEW070 SCT120
     FM302200 33008KT P6SM SCT070 SCT120=



000
FTUS45 KBOU 300115 AAA
TAFBJC
TAF AMD
KBJC 300115Z 3001/3024 33007KT P6SM VCSH SCT020 OVC030
     FM300200 30010G18KT P6SM SCT030 BKN080
     FM300400 27012G24KT P6SM FEW030 BKN100
     FM300600 21010KT P6SM FEW120
     FM301800 25007KT P6SM FEW070 SCT120
     FM302200 33008KT P6SM SCT070 SCT120=



000
FTUS45 KBOU 300115 AAA
TAFDEN
TAF AMD
KDEN 300115Z 3001/0106 34009KT P6SM FEW015 BKN080
     FM300300 25013G21KT P6SM FEW030 BKN080
     FM300600 21010KT P6SM FEW120
     FM301700 25007KT P6SM FEW070 SCT120
     FM302100 33008KT P6SM SCT070 SCT120
     FM010200 20008KT P6SM FEW070 BKN120=



000
FTUS45 KBOU 300115 AAA
TAFAPA
TAF AMD
KAPA 300115Z 3001/3024 21007KT P6SM FEW015 BKN060
     FM300200 33009KT P6SM FEW030 BKN080
     FM300600 21008KT P6SM FEW120
     FM301700 25007KT P6SM FEW070 SCT120
     FM302100 33008KT P6SM SCT070 SCT120=



000
FTUS45 KBOU 300115 AAA
TAFDEN
TAF AMD
KDEN 300115Z 3001/0106 34009KT P6SM FEW015 BKN080
     FM300300 25013G21KT P6SM FEW030 BKN080
     FM300600 21010KT P6SM FEW120
     FM301700 25007KT P6SM FEW070 SCT120
     FM302100 33008KT P6SM SCT070 SCT120
     FM010200 20008KT P6SM FEW070 BKN120=



000
FTUS45 KBOU 292339
TAFBJC
TAF
KBJC 292339Z 3000/3024 33010KT 6SM -SHRA SCT020 OVC030
     FM300100 30010G18KT P6SM VCSH SCT040 BKN080
     FM300400 25012G24KT P6SM FEW060 BKN100
     FM300600 21010KT P6SM FEW120
     FM301800 25007KT P6SM FEW070 SCT120
     FM302200 33008KT P6SM SCT070 SCT120=



000
FTUS45 KBOU 292339
TAFDEN
TAF
KDEN 292339Z 3000/0106 25012KT 4SM SHRA FEW006 SCT020 OVC040
     FM300100 34009KT P6SM -SHRA SCT020 OVC050
     FM300300 25011KT P6SM SCT040 BKN080
     FM300600 21010KT P6SM FEW120
     FM301700 25007KT P6SM FEW070 SCT120
     FM302100 33008KT P6SM SCT070 SCT120
     FM010200 20008KT P6SM FEW070 BKN120=



000
FTUS45 KBOU 292339
TAFAPA
TAF
KAPA 292339Z 3000/3024 28009KT 5SM SHRA SCT020 OVC040
     FM300100 34009KT P6SM -SHRA SCT020 OVC050
     FM300200 25011KT P6SM SCT050 BKN080
     FM300600 21008KT P6SM FEW120
     FM301700 25007KT P6SM FEW070 SCT120
     FM302100 33008KT P6SM SCT070 SCT120=



000
FTUS45 KBOU 292339
TAFBJC
TAF
KBJC 292339Z 3000/3024 33010KT 6SM -SHRA SCT020 OVC030
     FM300100 30010G18KT P6SM VCSH SCT040 BKN080
     FM300400 25012G24KT P6SM FEW060 BKN100
     FM300600 21010KT P6SM FEW120
     FM301800 25007KT P6SM FEW070 SCT120
     FM302200 33008KT P6SM SCT070 SCT120=



000
FTUS45 KBOU 292339
TAFAPA
TAF
KAPA 292339Z 3000/3024 28009KT 5SM SHRA SCT020 OVC040
     FM300100 34009KT P6SM -SHRA SCT020 OVC050
     FM300200 25011KT P6SM SCT050 BKN080
     FM300600 21008KT P6SM FEW120
     FM301700 25007KT P6SM FEW070 SCT120
     FM302100 33008KT P6SM SCT070 SCT120=



000
FTUS45 KBOU 292339
TAFDEN
TAF
KDEN 292339Z 3000/0106 25012KT 4SM SHRA FEW006 SCT020 OVC040
     FM300100 34009KT P6SM -SHRA SCT020 OVC050
     FM300300 25011KT P6SM SCT040 BKN080
     FM300600 21010KT P6SM FEW120
     FM301700 25007KT P6SM FEW070 SCT120
     FM302100 33008KT P6SM SCT070 SCT120
     FM010200 20008KT P6SM FEW070 BKN120=



000
FTUS45 KBOU 292250 AAC
TAFBJC
TAF AMD
KBJC 292250Z 2923/3018 33010KT 6SM -SHRA VCTS SCT020 OVC030CB
     FM300100 30010G18KT P6SM VCSH SCT040 BKN080
     FM300400 25012G24KT P6SM FEW120=



000
FTUS45 KBOU 292250 AAC
TAFBJC
TAF AMD
KBJC 292250Z 2923/3018 33010KT 6SM -SHRA VCTS SCT020 OVC030CB
     FM300100 30010G18KT P6SM VCSH SCT040 BKN080
     FM300400 25012G24KT P6SM FEW120=



000
FTUS45 KBOU 292249 AAE
TAFAPA
TAF AMD
KAPA 292249Z 2923/3018 33010KT 5SM TSRA BKN006CB OVC030
     FM300100 28010KT P6SM VCSH SCT020 BKN060
     FM300400 25010KT P6SM SCT060 SCT120
     FM300600 20008KT P6SM FEW120=



000
FTUS45 KBOU 292249 AAE
TAFAPA
TAF AMD
KAPA 292249Z 2923/3018 33010KT 5SM TSRA BKN006CB OVC030
     FM300100 28010KT P6SM VCSH SCT020 BKN060
     FM300400 25010KT P6SM SCT060 SCT120
     FM300600 20008KT P6SM FEW120=



000
FTUS45 KBOU 292247 AAE
TAFDEN
TAF AMD
KDEN 292247Z 2923/3024 29010G18KT 6SM TSRA SCT020 BKN030CB OVC045
      TEMPO 2923/2924 VRB15G25KT 4SM +TSRA
     FM300000 31014KT 6SM -SHRA SCT030 OVC060
     FM300300 25011KT P6SM SCT060 SCT120
     FM300600 21010KT P6SM FEW120
     FM301800 25007KT P6SM FEW120=



000
FTUS45 KBOU 292247 AAE
TAFDEN
TAF AMD
KDEN 292247Z 2923/3024 29010G18KT 6SM TSRA SCT020 BKN030CB OVC045
      TEMPO 2923/2924 VRB15G25KT 4SM +TSRA
     FM300000 31014KT 6SM -SHRA SCT030 OVC060
     FM300300 25011KT P6SM SCT060 SCT120
     FM300600 21010KT P6SM FEW120
     FM301800 25007KT P6SM FEW120=



000
FTUS45 KBOU 292143 AAD
TAFDEN
TAF AMD
KDEN 292143Z 2922/3024 29010G18KT 6SM TSRA SCT020 BKN030CB OVC045
      TEMPO 2922/2924 VRB15G25KT 4SM +TSRA
     FM300000 31014KT P6SM SCT040 BKN080
      TEMPO 3000/3003 -SHRA BKN040
     FM300400 25011KT P6SM SCT060 SCT120
     FM300600 21010KT P6SM FEW120
     FM301800 25007KT P6SM FEW120=



000
FTUS45 KBOU 292143 AAD
TAFDEN
TAF AMD
KDEN 292143Z 2922/3024 29010G18KT 6SM TSRA SCT020 BKN030CB OVC045
      TEMPO 2922/2924 VRB15G25KT 4SM +TSRA
     FM300000 31014KT P6SM SCT040 BKN080
      TEMPO 3000/3003 -SHRA BKN040
     FM300400 25011KT P6SM SCT060 SCT120
     FM300600 21010KT P6SM FEW120
     FM301800 25007KT P6SM FEW120=



000
FTUS45 KBOU 292140 AAD
TAFAPA
TAF AMD
KAPA 292140Z 2922/3018 33010KT P6SM -SHRA FEW009 BKN030 OVC045
      TEMPO 2922/2924 VRB15G28KT 4SM +TSRA BKN030CB
     FM300100 31014KT P6SM VCSH SCT040 BKN080
     FM300400 25010KT P6SM SCT060 SCT120
     FM300600 20008KT P6SM FEW120=



000
FTUS45 KBOU 292140 AAD
TAFAPA
TAF AMD
KAPA 292140Z 2922/3018 33010KT P6SM -SHRA FEW009 BKN030 OVC045
      TEMPO 2922/2924 VRB15G28KT 4SM +TSRA BKN030CB
     FM300100 31014KT P6SM VCSH SCT040 BKN080
     FM300400 25010KT P6SM SCT060 SCT120
     FM300600 20008KT P6SM FEW120=



000
FTUS45 KBOU 292138 AAB
TAFBJC
TAF AMD
KBJC 292138Z 2922/3018 33010KT P6SM -SHRA SCT030 BKN045 OVC080
      TEMPO 2922/2924 VRB15G25KT 4SM +TSRA SCT015 BKN025CB
     FM300000 30010G18KT P6SM VCSH SCT040 BKN080
     FM300400 25012G24KT P6SM FEW120=



000
FTUS45 KBOU 292138 AAB
TAFBJC
TAF AMD
KBJC 292138Z 2922/3018 33010KT P6SM -SHRA SCT030 BKN045 OVC080
      TEMPO 2922/2924 VRB15G25KT 4SM +TSRA SCT015 BKN025CB
     FM300000 30010G18KT P6SM VCSH SCT040 BKN080
     FM300400 25012G24KT P6SM FEW120=



000
FTUS45 KBOU 292101 AAC
TAFDEN
TAF AMD
KDEN 292101Z 2921/3024 29020G32KT 4SM TSRA SCT020 BKN030CB
      TEMPO 2921/2922 VRB25G40KT 1SM +TSRAGR SCT015 BKN025CB
     FM292200 09010KT P6SM VCTS BKN050CB BKN100
      TEMPO 2922/2924 VRB20G35KT 4SM +TSRA BKN030CB
     FM300100 31014KT P6SM VCSH SCT050 BKN090
     FM300400 25011KT P6SM SCT060 SCT120
     FM300600 21010KT P6SM FEW120
     FM301800 25007KT P6SM FEW120=



000
FTUS45 KBOU 292101 AAC
TAFDEN
TAF AMD
KDEN 292101Z 2921/3024 29020G32KT 4SM TSRA SCT020 BKN030CB
      TEMPO 2921/2922 VRB25G40KT 1SM +TSRAGR SCT015 BKN025CB
     FM292200 09010KT P6SM VCTS BKN050CB BKN100
      TEMPO 2922/2924 VRB20G35KT 4SM +TSRA BKN030CB
     FM300100 31014KT P6SM VCSH SCT050 BKN090
     FM300400 25011KT P6SM SCT060 SCT120
     FM300600 21010KT P6SM FEW120
     FM301800 25007KT P6SM FEW120=



000
FTUS45 KBOU 292056 AAB
TAFDEN
TAF AMD
KDEN 292056Z 2921/3024 03015G25KT 4SM TSRA SCT020 BKN030CB
      TEMPO 2921/2922 VRB25G40KT 1SM +TSRAGR SCT015 BKN025CB
     FM292200 09010KT P6SM VCTS BKN050CB BKN100
      TEMPO 2922/2924 VRB20G35KT 4SM +TSRA BKN030CB
     FM300100 31014KT P6SM VCSH SCT050 BKN090
     FM300400 25011KT P6SM SCT060 SCT120
     FM300600 21010KT P6SM FEW120
     FM301800 25007KT P6SM FEW120=



000
FTUS45 KBOU 292056 AAB
TAFDEN
TAF AMD
KDEN 292056Z 2921/3024 03015G25KT 4SM TSRA SCT020 BKN030CB
      TEMPO 2921/2922 VRB25G40KT 1SM +TSRAGR SCT015 BKN025CB
     FM292200 09010KT P6SM VCTS BKN050CB BKN100
      TEMPO 2922/2924 VRB20G35KT 4SM +TSRA BKN030CB
     FM300100 31014KT P6SM VCSH SCT050 BKN090
     FM300400 25011KT P6SM SCT060 SCT120
     FM300600 21010KT P6SM FEW120
     FM301800 25007KT P6SM FEW120=



000
FTUS45 KBOU 292043 AAC
TAFAPA
TAF AMD
KAPA 292043Z 2921/3018 29018G30KT 3SM +TSRA SCT025CB OVC050
      TEMPO 2921/2922 VRB25G40KT 2SM +TSRAGS SCT015 BKN025CB
     FM292200 29015G25KT P6SM VCTS BKN050CB BKN100
      TEMPO 2922/2924 VRB20G35KT 4SM +TSRA BKN030CB
     FM300100 31014KT P6SM VCSH SCT050 BKN090
     FM300400 25010KT P6SM SCT060 SCT120
     FM300600 20008KT P6SM FEW120=



000
FTUS45 KBOU 292043 AAC
TAFAPA
TAF AMD
KAPA 292043Z 2921/3018 29018G30KT 3SM +TSRA SCT025CB OVC050
      TEMPO 2921/2922 VRB25G40KT 2SM +TSRAGS SCT015 BKN025CB
     FM292200 29015G25KT P6SM VCTS BKN050CB BKN100
      TEMPO 2922/2924 VRB20G35KT 4SM +TSRA BKN030CB
     FM300100 31014KT P6SM VCSH SCT050 BKN090
     FM300400 25010KT P6SM SCT060 SCT120
     FM300600 20008KT P6SM FEW120=



000
FTUS45 KBOU 292039 AAA
TAFDEN
TAF AMD
KDEN 292039Z 2921/3024 04007KT P6SM VCTS SCT025CB BKN040
     FM292100 25020G30KT 4SM TSRA SCT025 BKN035CB
      TEMPO 2921/2922 VRB25G40KT 1SM +TSRAGR SCT015 BKN025CB
     FM292200 09010KT P6SM VCTS BKN050CB BKN100
      TEMPO 2922/2924 VRB20G35KT 4SM +TSRA BKN030CB
     FM300100 31014KT P6SM VCSH SCT050 BKN090
     FM300400 25011KT P6SM SCT060 SCT120
     FM300600 21010KT P6SM FEW120
     FM301800 25007KT P6SM FEW120=



000
FTUS45 KBOU 292039 AAA
TAFDEN
TAF AMD
KDEN 292039Z 2921/3024 04007KT P6SM VCTS SCT025CB BKN040
     FM292100 25020G30KT 4SM TSRA SCT025 BKN035CB
      TEMPO 2921/2922 VRB25G40KT 1SM +TSRAGR SCT015 BKN025CB
     FM292200 09010KT P6SM VCTS BKN050CB BKN100
      TEMPO 2922/2924 VRB20G35KT 4SM +TSRA BKN030CB
     FM300100 31014KT P6SM VCSH SCT050 BKN090
     FM300400 25011KT P6SM SCT060 SCT120
     FM300600 21010KT P6SM FEW120
     FM301800 25007KT P6SM FEW120=



000
FTUS45 KBOU 292017 AAA
TAFBJC
TAF AMD
KBJC 292017Z 2920/3018 21010KT P6SM VCTS SCT030 BKN050CB BKN090
      TEMPO 2920/2924 VRB20G35KT 4SM +TSRA SCT015 BKN025CB
     FM300000 30010G18KT P6SM SCT040 BKN100
     FM300400 25012G20KT P6SM FEW120=



000
FTUS45 KBOU 292017 AAA
TAFBJC
TAF AMD
KBJC 292017Z 2920/3018 21010KT P6SM VCTS SCT030 BKN050CB BKN090
      TEMPO 2920/2924 VRB20G35KT 4SM +TSRA SCT015 BKN025CB
     FM300000 30010G18KT P6SM SCT040 BKN100
     FM300400 25012G20KT P6SM FEW120=



000
FTUS45 KBOU 292013 AAA
TAFAPA
TAF AMD
KAPA 292013Z 2920/3018 05009KT P6SM VCTS SCT025CB OVC050
      TEMPO 2920/2921 VRB25G40KT 4SM +TSRAGS BKN025CB
     FM292100 09010KT P6SM VCTS BKN050CB BKN100
      TEMPO 2921/2924 VRB20G35KT 4SM +TSRA BKN030CB
     FM300100 31014KT P6SM VCSH SCT050 BKN090
     FM300400 25010KT P6SM SCT060 SCT120
     FM300600 20008KT P6SM FEW120=



000
FTUS45 KBOU 292013 AAA
TAFAPA
TAF AMD
KAPA 292013Z 2920/3018 05009KT P6SM VCTS SCT025CB OVC050
      TEMPO 2920/2921 VRB25G40KT 4SM +TSRAGS BKN025CB
     FM292100 09010KT P6SM VCTS BKN050CB BKN100
      TEMPO 2921/2924 VRB20G35KT 4SM +TSRA BKN030CB
     FM300100 31014KT P6SM VCSH SCT050 BKN090
     FM300400 25010KT P6SM SCT060 SCT120
     FM300600 20008KT P6SM FEW120=



000
FTUS45 KBOU 292013 AAB
TAFAPA
TAF AMD
KAPA 292013Z 2920/3018 05009KT P6SM VCTS SCT025CB OVC050
      TEMPO 2920/2921 VRB25G40KT 4SM +TSRAGR BKN025CB
     FM292100 09010KT P6SM VCTS BKN050CB BKN100
      TEMPO 2921/2924 VRB20G35KT 4SM +TSRA BKN030CB
     FM300100 31014KT P6SM VCSH SCT050 BKN090
     FM300400 25010KT P6SM SCT060 SCT120
     FM300600 20008KT P6SM FEW120=



000
FTUS45 KBOU 292013 AAB
TAFAPA
TAF AMD
KAPA 292013Z 2920/3018 05009KT P6SM VCTS SCT025CB OVC050
      TEMPO 2920/2921 VRB25G40KT 4SM +TSRAGR BKN025CB
     FM292100 09010KT P6SM VCTS BKN050CB BKN100
      TEMPO 2921/2924 VRB20G35KT 4SM +TSRA BKN030CB
     FM300100 31014KT P6SM VCSH SCT050 BKN090
     FM300400 25010KT P6SM SCT060 SCT120
     FM300600 20008KT P6SM FEW120=



000
FTUS45 KBOU 291740
TAFAPA
TAF
KAPA 291740Z 2918/3018 04007KT P6SM SCT025 BKN060
      TEMPO 2918/2920 BKN025
     FM292000 09010KT P6SM VCTS BKN050CB BKN100
      TEMPO 2921/2924 VRB20G35KT 4SM +TSRA BKN030CB
     FM300100 31014KT P6SM VCSH SCT050 BKN090
     FM300400 25010KT P6SM SCT060 SCT120
     FM300600 20008KT P6SM FEW120=



000
FTUS45 KBOU 291740
TAFBJC
TAF
KBJC 291740Z 2918/3018 VRB04KT P6SM SCT012 BKN025
     FM292000 21010KT P6SM VCTS BKN050CB BKN090
      TEMPO 2920/2924 VRB20G35KT -TSRA BKN030CB
     FM300000 30010G18KT P6SM SCT040 BKN100
     FM300400 25012G20KT P6SM FEW120=



000
FTUS45 KBOU 291740
TAFDEN
TAF
KDEN 291740Z 2918/3024 04007KT P6SM SCT025 BKN060
      TEMPO 2918/2919 BKN025
     FM292000 09010KT P6SM VCTS BKN050CB BKN100
      TEMPO 2921/2924 VRB20G35KT 4SM +TSRA BKN030CB
     FM300100 31014KT P6SM VCSH SCT050 BKN090
     FM300400 25011KT P6SM SCT060 SCT120
     FM300600 21010KT P6SM FEW120
     FM301800 25007KT P6SM FEW120=



000
FTUS45 KBOU 291740
TAFAPA
TAF
KAPA 291740Z 2918/3018 04007KT P6SM SCT025 BKN060
      TEMPO 2918/2920 BKN025
     FM292000 09010KT P6SM VCTS BKN050CB BKN100
      TEMPO 2921/2924 VRB20G35KT 4SM +TSRA BKN030CB
     FM300100 31014KT P6SM VCSH SCT050 BKN090
     FM300400 25010KT P6SM SCT060 SCT120
     FM300600 20008KT P6SM FEW120=



000
FTUS45 KBOU 291740
TAFDEN
TAF
KDEN 291740Z 2918/3024 04007KT P6SM SCT025 BKN060
      TEMPO 2918/2919 BKN025
     FM292000 09010KT P6SM VCTS BKN050CB BKN100
      TEMPO 2921/2924 VRB20G35KT 4SM +TSRA BKN030CB
     FM300100 31014KT P6SM VCSH SCT050 BKN090
     FM300400 25011KT P6SM SCT060 SCT120
     FM300600 21010KT P6SM FEW120
     FM301800 25007KT P6SM FEW120=



000
FTUS45 KBOU 291740
TAFBJC
TAF
KBJC 291740Z 2918/3018 VRB04KT P6SM SCT012 BKN025
     FM292000 21010KT P6SM VCTS BKN050CB BKN090
      TEMPO 2920/2924 VRB20G35KT -TSRA BKN030CB
     FM300000 30010G18KT P6SM SCT040 BKN100
     FM300400 25012G20KT P6SM FEW120=



000
FTUS45 KBOU 291542 CCA
TAFBJC
TAF COR
KBJC 291542Z 2916/3012 VRB04KT P6SM SCT012 BKN025
     FM291900 03007KT P6SM SCT020 BKN080
     FM292100 14012KT P6SM VCTS BKN050CB BKN090
      TEMPO 2921/3001 VRB20G35KT -TSRA BKN030CB
     FM300100 30010G18KT P6SM SCT040 BKN100
     FM300400 25011KT P6SM FEW050 BKN120=



000
FTUS45 KBOU 291542 CCA
TAFBJC
TAF COR
KBJC 291542Z 2916/3012 VRB04KT P6SM SCT012 BKN025
     FM291900 03007KT P6SM SCT020 BKN080
     FM292100 14012KT P6SM VCTS BKN050CB BKN090
      TEMPO 2921/3001 VRB20G35KT -TSRA BKN030CB
     FM300100 30010G18KT P6SM SCT040 BKN100
     FM300400 25011KT P6SM FEW050 BKN120=



000
FTUS45 KBOU 291541 AAB
TAFDEN
TAF AMD
KDEN 291541Z 2916/3018 10005KT P6SM BKN014
     FM291800 07007KT P6SM SCT030 BKN080
     FM292000 09012KT P6SM VCTS BKN050CB BKN100
      TEMPO 2921/3001 VRB25G40KT 3SM +TSRA BKN030CB
     FM300100 31014KT P6SM VCSH SCT050 BKN090
     FM300400 23011KT P6SM SCT060 BKN120=



000
FTUS45 KBOU 291541 AAB
TAFAPA
TAF AMD
KAPA 291541Z 2916/3012 VRB05KT P6SM SCT012 BKN022 BKN080
     FM291800 15008KT P6SM VCSH SCT030 BKN080
     FM292000 16011KT P6SM VCTS BKN050CB BKN140
      TEMPO 2921/3001 VRB25G40KT 4SM +TSRA BKN030CB
     FM300100 33011KT P6SM VCSH SCT050 BKN090
     FM300400 VRB06KT P6SM SCT060 BKN120=



000
FTUS45 KBOU 291541 AAB
TAFAPA
TAF AMD
KAPA 291541Z 2916/3012 VRB05KT P6SM SCT012 BKN022 BKN080
     FM291800 15008KT P6SM VCSH SCT030 BKN080
     FM292000 16011KT P6SM VCTS BKN050CB BKN140
      TEMPO 2921/3001 VRB25G40KT 4SM +TSRA BKN030CB
     FM300100 33011KT P6SM VCSH SCT050 BKN090
     FM300400 VRB06KT P6SM SCT060 BKN120=



000
FTUS45 KBOU 291541 AAB
TAFBJC
TAF AMD
KBJC 291541Z 2916/3012 36005KT P6SM BKN012 OVC018
     FM291900 03007KT P6SM SCT020 BKN080
     FM292100 14012KT P6SM VCTS BKN050CB BKN090
      TEMPO 2921/3001 VRB20G35KT -TSRA BKN030CB
     FM300100 30010G18KT P6SM SCT040 BKN100
     FM300400 25011KT P6SM FEW050 BKN120=



000
FTUS45 KBOU 291541 AAB
TAFDEN
TAF AMD
KDEN 291541Z 2916/3018 10005KT P6SM BKN014
     FM291800 07007KT P6SM SCT030 BKN080
     FM292000 09012KT P6SM VCTS BKN050CB BKN100
      TEMPO 2921/3001 VRB25G40KT 3SM +TSRA BKN030CB
     FM300100 31014KT P6SM VCSH SCT050 BKN090
     FM300400 23011KT P6SM SCT060 BKN120=



000
FTUS45 KBOU 291541 AAB
TAFBJC
TAF AMD
KBJC 291541Z 2916/3012 36005KT P6SM BKN012 OVC018
     FM291900 03007KT P6SM SCT020 BKN080
     FM292100 14012KT P6SM VCTS BKN050CB BKN090
      TEMPO 2921/3001 VRB20G35KT -TSRA BKN030CB
     FM300100 30010G18KT P6SM SCT040 BKN100
     FM300400 25011KT P6SM FEW050 BKN120=



000
FTUS45 KBOU 291407 AAA
TAFAPA
TAF AMD
KAPA 291407Z 2914/3012 VRB04KT P6SM BKN010 BKN080
     FM291500 05006KT P6SM SCT012 BKN080
      TEMPO 2915/2917 BKN025
     FM291700 15008KT P6SM VCSH SCT030 BKN090
     FM292000 16011KT P6SM VCTS BKN050CB BKN140
      TEMPO 2921/3001 VRB25G40KT -TSRA BKN030CB
     FM300100 33011KT P6SM VCSH SCT050 BKN090
     FM300400 VRB06KT P6SM SCT060 BKN120=



000
FTUS45 KBOU 291407 AAA
TAFAPA
TAF AMD
KAPA 291407Z 2914/3012 VRB04KT P6SM BKN010 BKN080
     FM291500 05006KT P6SM SCT012 BKN080
      TEMPO 2915/2917 BKN025
     FM291700 15008KT P6SM VCSH SCT030 BKN090
     FM292000 16011KT P6SM VCTS BKN050CB BKN140
      TEMPO 2921/3001 VRB25G40KT -TSRA BKN030CB
     FM300100 33011KT P6SM VCSH SCT050 BKN090
     FM300400 VRB06KT P6SM SCT060 BKN120=



000
FTUS45 KBOU 291406 AAA
TAFBJC
TAF AMD
KBJC 291406Z 2914/3012 36006KT P6SM SCT010 BKN026
     FM291500 36005KT P6SM SCT020 BKN080
      TEMPO 2915/2917 BKN025
     FM291700 05008KT P6SM SCT030 BKN120
     FM292000 14012KT P6SM BKN050 BKN090
      TEMPO 2921/3001 VRB20G35KT -TSRA BKN030CB
     FM300100 VRB06KT P6SM SCT040 BKN100
     FM300400 25011KT P6SM FEW050 BKN120=



000
FTUS45 KBOU 291402 AAA
TAFDEN
TAF AMD
KDEN 291402Z 2914/3018 VRB04KT P6SM BKN007
      TEMPO 2915/2916 SCT007 BKN030
     FM291600 06008KT P6SM VCSH SCT030 BKN090
     FM292000 09012KT P6SM VCTS BKN050CB BKN100
      TEMPO 2921/3001 VRB25G40KT 3SM +TSRA BKN030CB
     FM300100 31014KT P6SM VCSH SCT050 BKN090
     FM300400 23011KT P6SM SCT060 BKN120=



000
FTUS45 KBOU 291402 AAA
TAFDEN
TAF AMD
KDEN 291402Z 2914/3018 VRB04KT P6SM BKN007
      TEMPO 2915/2916 SCT007 BKN030
     FM291600 06008KT P6SM VCSH SCT030 BKN090
     FM292000 09012KT P6SM VCTS BKN050CB BKN100
      TEMPO 2921/3001 VRB25G40KT 3SM +TSRA BKN030CB
     FM300100 31014KT P6SM VCSH SCT050 BKN090
     FM300400 23011KT P6SM SCT060 BKN120=



000
FTUS45 KBOU 291135
TAFBJC
TAF
KBJC 291135Z 2912/3012 36006KT P6SM SCT010 BKN060
      TEMPO 2912/2914 BKN015
     FM291500 36005KT P6SM SCT020 BKN080
      TEMPO 2915/2917 BKN025
     FM291700 05008KT P6SM SCT030 BKN120
     FM292000 14012KT P6SM BKN050 BKN090
      TEMPO 2921/3001 VRB20G35KT -TSRA BKN030CB
     FM300100 VRB06KT P6SM SCT040 BKN100
     FM300400 25011KT P6SM FEW050 BKN120=



000
FTUS45 KBOU 291135
TAFDEN
TAF
KDEN 291135Z 2912/3018 36009KT P6SM SCT005 SCT012 BKN050
      TEMPO 2912/2915 OVC005
     FM291500 VRB05KT P6SM SCT015 BKN060
      TEMPO 2915/2917 BKN012
     FM291700 06008KT P6SM VCSH SCT030 BKN090
     FM292000 09012KT P6SM VCTS BKN050CB BKN100
      TEMPO 2921/3001 VRB25G40KT 3SM +TSRA BKN030CB
     FM300100 31014KT P6SM VCSH SCT050 BKN090
     FM300400 23011KT P6SM SCT060 BKN120=



000
FTUS45 KBOU 291135
TAFAPA
TAF
KAPA 291135Z 2912/3012 33005KT P6SM FEW015 SCT025 BKN050
      TEMPO 2912/2915 BKN012
     FM291500 VRB05KT P6SM SCT012 BKN080
      TEMPO 2915/2917 BKN025
     FM291700 15008KT P6SM VCSH SCT030 BKN090
     FM292000 16011KT P6SM VCTS BKN050CB BKN140
      TEMPO 2921/3001 VRB25G40KT -TSRA BKN030CB
     FM300100 33011KT P6SM VCSH SCT050 BKN090
     FM300400 VRB06KT P6SM SCT060 BKN120=



000
FTUS45 KBOU 291135
TAFAPA
TAF
KAPA 291135Z 2912/3012 33005KT P6SM FEW015 SCT025 BKN050
      TEMPO 2912/2915 BKN012
     FM291500 VRB05KT P6SM SCT012 BKN080
      TEMPO 2915/2917 BKN025
     FM291700 15008KT P6SM VCSH SCT030 BKN090
     FM292000 16011KT P6SM VCTS BKN050CB BKN140
      TEMPO 2921/3001 VRB25G40KT -TSRA BKN030CB
     FM300100 33011KT P6SM VCSH SCT050 BKN090
     FM300400 VRB06KT P6SM SCT060 BKN120=



000
FTUS45 KBOU 291135
TAFDEN
TAF
KDEN 291135Z 2912/3018 36009KT P6SM SCT005 SCT012 BKN050
      TEMPO 2912/2915 OVC005
     FM291500 VRB05KT P6SM SCT015 BKN060
      TEMPO 2915/2917 BKN012
     FM291700 06008KT P6SM VCSH SCT030 BKN090
     FM292000 09012KT P6SM VCTS BKN050CB BKN100
      TEMPO 2921/3001 VRB25G40KT 3SM +TSRA BKN030CB
     FM300100 31014KT P6SM VCSH SCT050 BKN090
     FM300400 23011KT P6SM SCT060 BKN120=



000
FTUS45 KBOU 291135
TAFBJC
TAF
KBJC 291135Z 2912/3012 36006KT P6SM SCT010 BKN060
      TEMPO 2912/2914 BKN015
     FM291500 36005KT P6SM SCT020 BKN080
      TEMPO 2915/2917 BKN025
     FM291700 05008KT P6SM SCT030 BKN120
     FM292000 14012KT P6SM BKN050 BKN090
      TEMPO 2921/3001 VRB20G35KT -TSRA BKN030CB
     FM300100 VRB06KT P6SM SCT040 BKN100
     FM300400 25011KT P6SM FEW050 BKN120=



000
FTUS45 KBOU 291054 AAC
TAFAPA
TAF AMD
KAPA 291054Z 2911/3006 33005KT P6SM FEW015 SCT025 BKN120
      TEMPO 2912/2915 BKN012
     FM291500 VRB05KT P6SM SCT012 BKN080
      TEMPO 2915/2917 BKN025
     FM291700 16010KT P6SM SCT080 SCT140
     FM292000 20014G22KT P6SM BKN080 BKN140
      TEMPO 2921/3001 VRB20G35KT -TSRA BKN060CB
     FM300100 27012G20KT P6SM SCT080 BKN140=



000
FTUS45 KBOU 291054 AAC
TAFAPA
TAF AMD
KAPA 291054Z 2911/3006 33005KT P6SM FEW015 SCT025 BKN120
      TEMPO 2912/2915 BKN012
     FM291500 VRB05KT P6SM SCT012 BKN080
      TEMPO 2915/2917 BKN025
     FM291700 16010KT P6SM SCT080 SCT140
     FM292000 20014G22KT P6SM BKN080 BKN140
      TEMPO 2921/3001 VRB20G35KT -TSRA BKN060CB
     FM300100 27012G20KT P6SM SCT080 BKN140=



000
FTUS45 KBOU 291053 AAA
TAFBJC
TAF AMD
KBJC 291053Z 2911/3006 36006KT P6SM SCT010 BKN100
      TEMPO 2911/2914 BKN015
     FM291500 36005KT P6SM SCT020 BKN080
      TEMPO 2915/2917 BKN025
     FM291700 05008KT P6SM SCT080 SCT140
     FM292000 14012KT P6SM BKN080 BKN140
      TEMPO 2921/3001 VRB20G35KT -TSRA BKN060CB
     FM300100 25018G26KT P6SM SCT080 BKN140=



000
FTUS45 KBOU 291053 AAA
TAFBJC
TAF AMD
KBJC 291053Z 2911/3006 36006KT P6SM SCT010 BKN100
      TEMPO 2911/2914 BKN015
     FM291500 36005KT P6SM SCT020 BKN080
      TEMPO 2915/2917 BKN025
     FM291700 05008KT P6SM SCT080 SCT140
     FM292000 14012KT P6SM BKN080 BKN140
      TEMPO 2921/3001 VRB20G35KT -TSRA BKN060CB
     FM300100 25018G26KT P6SM SCT080 BKN140=



000
FTUS45 KBOU 291052 AAE
TAFDEN
TAF AMD
KDEN 291052Z 2911/3012 36009KT P6SM FEW005 SCT012 OVC120
      TEMPO 2911/2914 BKN012
     FM291400 VRB05KT P6SM SCT020 BKN080
      TEMPO 2914/2917 BKN025
     FM291700 16008KT P6SM VCSH SCT050 BKN140
     FM292000 14014G22KT P6SM BKN080 BKN140
      TEMPO 2921/3001 VRB20G35KT -TSRA BKN060CB
     FM300100 23017G25KT P6SM SCT080 BKN140=



000
FTUS45 KBOU 291052 AAE
TAFDEN
TAF AMD
KDEN 291052Z 2911/3012 36009KT P6SM FEW005 SCT012 OVC120
      TEMPO 2911/2914 BKN012
     FM291400 VRB05KT P6SM SCT020 BKN080
      TEMPO 2914/2917 BKN025
     FM291700 16008KT P6SM VCSH SCT050 BKN140
     FM292000 14014G22KT P6SM BKN080 BKN140
      TEMPO 2921/3001 VRB20G35KT -TSRA BKN060CB
     FM300100 23017G25KT P6SM SCT080 BKN140=



000
FTUS45 KBOU 290958 AAB
TAFAPA
TAF AMD
KAPA 290958Z 2910/3006 33005KT P6SM FEW005 SCT015 BKN050
      TEMPO 2911/2915 BKN009
     FM291500 VRB05KT P6SM BKN012 OVC080
      TEMPO 2915/2917 SCT015 BKN080
     FM291700 16010KT P6SM SCT080 SCT140
     FM292000 20014G22KT P6SM BKN080 BKN140
      TEMPO 2921/3001 VRB20G35KT -TSRA BKN060CB
     FM300100 27012G20KT P6SM SCT080 BKN140=



000
FTUS45 KBOU 290958 AAB
TAFAPA
TAF AMD
KAPA 290958Z 2910/3006 33005KT P6SM FEW005 SCT015 BKN050
      TEMPO 2911/2915 BKN009
     FM291500 VRB05KT P6SM BKN012 OVC080
      TEMPO 2915/2917 SCT015 BKN080
     FM291700 16010KT P6SM SCT080 SCT140
     FM292000 20014G22KT P6SM BKN080 BKN140
      TEMPO 2921/3001 VRB20G35KT -TSRA BKN060CB
     FM300100 27012G20KT P6SM SCT080 BKN140=



000
FTUS45 KBOU 290932 AAD
TAFDEN
TAF AMD
KDEN 290932Z 2910/3012 30009KT P6SM BKN013
     FM291100 30009KT P6SM FEW005 BKN012 OVC040
      TEMPO 2911/2914 5SM BR BKN005 OVC015
     FM291400 VRB05KT P6SM BKN015 OVC080
      TEMPO 2915/2917 SCT020 BKN080
     FM291700 16008KT P6SM SCT080 SCT140
     FM292000 14014G22KT P6SM BKN080 BKN140
      TEMPO 2921/3001 VRB20G35KT -TSRA BKN060CB
     FM300100 23017G25KT P6SM SCT080 BKN140=



000
FTUS45 KBOU 290932 AAD
TAFDEN
TAF AMD
KDEN 290932Z 2910/3012 30009KT P6SM BKN013
     FM291100 30009KT P6SM FEW005 BKN012 OVC040
      TEMPO 2911/2914 5SM BR BKN005 OVC015
     FM291400 VRB05KT P6SM BKN015 OVC080
      TEMPO 2915/2917 SCT020 BKN080
     FM291700 16008KT P6SM SCT080 SCT140
     FM292000 14014G22KT P6SM BKN080 BKN140
      TEMPO 2921/3001 VRB20G35KT -TSRA BKN060CB
     FM300100 23017G25KT P6SM SCT080 BKN140=



000
FTUS45 KBOU 290747 AAC
TAFDEN
TAF AMD
KDEN 290747Z 2908/3012 30009KT P6SM FEW008 SCT015 BKN040
      TEMPO 2909/2911 BKN010
     FM291100 30009KT P6SM FEW005 BKN015 OVC040
      TEMPO 2911/2914 5SM BR BKN008 OVC015
     FM291400 VRB05KT P6SM BKN015 OVC080
      TEMPO 2915/2917 SCT020 BKN080
     FM291700 16008KT P6SM SCT080 SCT140
     FM292000 14014G22KT P6SM BKN080 BKN140
      TEMPO 2921/3001 VRB20G35KT -TSRA BKN060CB
     FM300100 23017G25KT P6SM SCT080 BKN140=



000
FTUS45 KBOU 290747 AAC
TAFDEN
TAF AMD
KDEN 290747Z 2908/3012 30009KT P6SM FEW008 SCT015 BKN040
      TEMPO 2909/2911 BKN010
     FM291100 30009KT P6SM FEW005 BKN015 OVC040
      TEMPO 2911/2914 5SM BR BKN008 OVC015
     FM291400 VRB05KT P6SM BKN015 OVC080
      TEMPO 2915/2917 SCT020 BKN080
     FM291700 16008KT P6SM SCT080 SCT140
     FM292000 14014G22KT P6SM BKN080 BKN140
      TEMPO 2921/3001 VRB20G35KT -TSRA BKN060CB
     FM300100 23017G25KT P6SM SCT080 BKN140=



000
FTUS45 KBOU 290714 AAB
TAFDEN
TAF AMD
KDEN 290714Z 2907/3012 30009KT P6SM FEW010 BKN050
     FM290900 30007KT P6SM FEW008 SCT015 BKN040
      TEMPO 2911/2914 5SM BR BKN008 OVC015
     FM291400 VRB05KT P6SM BKN015 OVC080
      TEMPO 2915/2917 SCT020 BKN080
     FM291700 16008KT P6SM SCT080 SCT140
     FM292000 14014G22KT P6SM BKN080 BKN140
      TEMPO 2921/3001 VRB20G35KT -TSRA BKN060CB
     FM300100 23017G25KT P6SM SCT080 BKN140=



000
FTUS45 KBOU 290714 AAB
TAFDEN
TAF AMD
KDEN 290714Z 2907/3012 30009KT P6SM FEW010 BKN050
     FM290900 30007KT P6SM FEW008 SCT015 BKN040
      TEMPO 2911/2914 5SM BR BKN008 OVC015
     FM291400 VRB05KT P6SM BKN015 OVC080
      TEMPO 2915/2917 SCT020 BKN080
     FM291700 16008KT P6SM SCT080 SCT140
     FM292000 14014G22KT P6SM BKN080 BKN140
      TEMPO 2921/3001 VRB20G35KT -TSRA BKN060CB
     FM300100 23017G25KT P6SM SCT080 BKN140=



000
FTUS45 KBOU 290619 AAA
TAFAPA
TAF AMD
KAPA 290619Z 2906/3006 36006KT P6SM SCT008 BKN016 BKN050
     FM290800 02009KT P6SM SCT004 BKN012
      TEMPO 2908/2911 BKN008
     FM291100 33005KT 4SM BR BKN005 OVC015
     FM291500 VRB05KT P6SM BKN012 OVC080
      TEMPO 2915/2917 SCT015 BKN080
     FM291700 16010KT P6SM SCT080 SCT140
     FM292000 20014G22KT P6SM BKN080 BKN140
      TEMPO 2921/3001 VRB20G35KT -TSRA BKN060CB
     FM300100 27012G20KT P6SM SCT080 BKN140=



000
FTUS45 KBOU 290619 AAA
TAFAPA
TAF AMD
KAPA 290619Z 2906/3006 36006KT P6SM SCT008 BKN016 BKN050
     FM290800 02009KT P6SM SCT004 BKN012
      TEMPO 2908/2911 BKN008
     FM291100 33005KT 4SM BR BKN005 OVC015
     FM291500 VRB05KT P6SM BKN012 OVC080
      TEMPO 2915/2917 SCT015 BKN080
     FM291700 16010KT P6SM SCT080 SCT140
     FM292000 20014G22KT P6SM BKN080 BKN140
      TEMPO 2921/3001 VRB20G35KT -TSRA BKN060CB
     FM300100 27012G20KT P6SM SCT080 BKN140=



000
FTUS45 KBOU 290615 AAA
TAFDEN
TAF AMD
KDEN 290615Z 2906/3012 33009KT P6SM SCT010 BKN050
      TEMPO 2906/2909 BKN010
     FM290900 30007KT 4SM BR BKN008 OVC015
      TEMPO 2909/2911 P6SM NSW SCT008 BKN015
     FM291400 VRB05KT P6SM BKN015 OVC080
      TEMPO 2915/2917 SCT020 BKN080
     FM291700 16008KT P6SM SCT080 SCT140
     FM292000 14014G22KT P6SM BKN080 BKN140
      TEMPO 2921/3001 VRB20G35KT -TSRA BKN060CB
     FM300100 23017G25KT P6SM SCT080 BKN140=



000
FTUS45 KBOU 290615 AAA
TAFDEN
TAF AMD
KDEN 290615Z 2906/3012 33009KT P6SM SCT010 BKN050
      TEMPO 2906/2909 BKN010
     FM290900 30007KT 4SM BR BKN008 OVC015
      TEMPO 2909/2911 P6SM NSW SCT008 BKN015
     FM291400 VRB05KT P6SM BKN015 OVC080
      TEMPO 2915/2917 SCT020 BKN080
     FM291700 16008KT P6SM SCT080 SCT140
     FM292000 14014G22KT P6SM BKN080 BKN140
      TEMPO 2921/3001 VRB20G35KT -TSRA BKN060CB
     FM300100 23017G25KT P6SM SCT080 BKN140=



000
FTUS45 KBOU 290524
TAFDEN
TAF
KDEN 290524Z 2906/3012 02009KT P6SM SCT010 BKN110
      TEMPO 2907/2909 BKN010
     FM290900 30007KT 4SM BR BKN008 OVC015
      TEMPO 2909/2911 P6SM NSW SCT008 BKN015
     FM291400 VRB05KT P6SM BKN015 OVC080
      TEMPO 2915/2917 SCT020 BKN080
     FM291700 16008KT P6SM SCT080 SCT140
     FM292000 14014G22KT P6SM BKN080 BKN140
      TEMPO 2921/3001 VRB20G35KT -TSRA BKN060CB
     FM300100 23017G25KT P6SM SCT080 BKN140=



000
FTUS45 KBOU 290524
TAFAPA
TAF
KAPA 290524Z 2906/3006 36006KT P6SM FEW080 BKN100
     FM290800 02009KT P6SM SCT008 BKN110
      TEMPO 2909/2911 BKN008
     FM291100 33005KT 4SM BR BKN008 OVC015
     FM291500 VRB05KT P6SM BKN012 OVC080
      TEMPO 2915/2917 SCT015 BKN080
     FM291700 16010KT P6SM SCT080 SCT140
     FM292000 20014G22KT P6SM BKN080 BKN140
      TEMPO 2921/3001 VRB20G35KT -TSRA BKN060CB
     FM300100 27012G20KT P6SM SCT080 BKN140=



000
FTUS45 KBOU 290524
TAFBJC
TAF
KBJC 290524Z 2906/3006 33010KT P6SM SCT010 BKN110
     FM291000 33005KT P6SM SCT006 BKN015
      TEMPO 2911/2914 2SM BR BKN006
     FM291500 33005KT P6SM BKN015 OVC080
      TEMPO 2915/2917 SCT015 BKN080
     FM291700 05008KT P6SM SCT080 SCT140
     FM292000 14012KT P6SM BKN080 BKN140
      TEMPO 2921/3001 VRB20G35KT -TSRA BKN060CB
     FM300100 25018G26KT P6SM SCT080 BKN140=



000
FTUS45 KBOU 290524
TAFBJC
TAF
KBJC 290524Z 2906/3006 33010KT P6SM SCT010 BKN110
     FM291000 33005KT P6SM SCT006 BKN015
      TEMPO 2911/2914 2SM BR BKN006
     FM291500 33005KT P6SM BKN015 OVC080
      TEMPO 2915/2917 SCT015 BKN080
     FM291700 05008KT P6SM SCT080 SCT140
     FM292000 14012KT P6SM BKN080 BKN140
      TEMPO 2921/3001 VRB20G35KT -TSRA BKN060CB
     FM300100 25018G26KT P6SM SCT080 BKN140=



000
FTUS45 KBOU 290524
TAFDEN
TAF
KDEN 290524Z 2906/3012 02009KT P6SM SCT010 BKN110
      TEMPO 2907/2909 BKN010
     FM290900 30007KT 4SM BR BKN008 OVC015
      TEMPO 2909/2911 P6SM NSW SCT008 BKN015
     FM291400 VRB05KT P6SM BKN015 OVC080
      TEMPO 2915/2917 SCT020 BKN080
     FM291700 16008KT P6SM SCT080 SCT140
     FM292000 14014G22KT P6SM BKN080 BKN140
      TEMPO 2921/3001 VRB20G35KT -TSRA BKN060CB
     FM300100 23017G25KT P6SM SCT080 BKN140=



000
FTUS45 KBOU 290524
TAFAPA
TAF
KAPA 290524Z 2906/3006 36006KT P6SM FEW080 BKN100
     FM290800 02009KT P6SM SCT008 BKN110
      TEMPO 2909/2911 BKN008
     FM291100 33005KT 4SM BR BKN008 OVC015
     FM291500 VRB05KT P6SM BKN012 OVC080
      TEMPO 2915/2917 SCT015 BKN080
     FM291700 16010KT P6SM SCT080 SCT140
     FM292000 20014G22KT P6SM BKN080 BKN140
      TEMPO 2921/3001 VRB20G35KT -TSRA BKN060CB
     FM300100 27012G20KT P6SM SCT080 BKN140=



000
FTUS45 KBOU 290449 AAA
TAFAPA
TAF AMD
KAPA 290449Z 2905/2924 19006KT P6SM BKN110
     FM290700 02009KT P6SM SCT008 BKN110
      TEMPO 2907/2910 BKN008
     FM291000 33005KT 4SM BR BKN008 OVC015
     FM291500 VRB05KT P6SM SCT020 SCT120
     FM291700 16010KT P6SM SCT080 BKN200
     FM292000 20018G22KT P6SM BKN080 BKN140
      TEMPO 2920/2924 VRB20G35KT TSRA BKN060CB=



000
FTUS45 KBOU 290449 AAC
TAFDEN
TAF AMD
KDEN 290449Z 2905/3006 02009KT P6SM SCT010 BKN110
      TEMPO 2905/2909 BKN010
     FM290900 30005KT 4SM BR BKN008 OVC015
      TEMPO 2909/2911 P6SM NSW SCT008 BKN015
     FM291400 VRB05KT P6SM SCT020 SCT120
     FM291800 14010KT P6SM SCT080 BKN200
     FM292000 14014G22KT P6SM BKN080 BKN140
      TEMPO 2920/2924 VRB20G35KT TSRA BKN060CB
     FM300000 20014G22KT P6SM SCT080 BKN140=



000
FTUS45 KBOU 290449 AAA
TAFAPA
TAF AMD
KAPA 290449Z 2905/2924 19006KT P6SM BKN110
     FM290700 02009KT P6SM SCT008 BKN110
      TEMPO 2907/2910 BKN008
     FM291000 33005KT 4SM BR BKN008 OVC015
     FM291500 VRB05KT P6SM SCT020 SCT120
     FM291700 16010KT P6SM SCT080 BKN200
     FM292000 20018G22KT P6SM BKN080 BKN140
      TEMPO 2920/2924 VRB20G35KT TSRA BKN060CB=



000
FTUS45 KBOU 290449 AAC
TAFDEN
TAF AMD
KDEN 290449Z 2905/3006 02009KT P6SM SCT010 BKN110
      TEMPO 2905/2909 BKN010
     FM290900 30005KT 4SM BR BKN008 OVC015
      TEMPO 2909/2911 P6SM NSW SCT008 BKN015
     FM291400 VRB05KT P6SM SCT020 SCT120
     FM291800 14010KT P6SM SCT080 BKN200
     FM292000 14014G22KT P6SM BKN080 BKN140
      TEMPO 2920/2924 VRB20G35KT TSRA BKN060CB
     FM300000 20014G22KT P6SM SCT080 BKN140=



000
FTUS45 KBOU 290313 AAB
TAFDEN
TAF AMD
KDEN 290313Z 2903/3006 25006KT P6SM BKN110
     FM291100 30005KT P6SM FEW008 SCT120
     FM291400 VRB05KT P6SM FEW020 SCT120
     FM291800 14010KT P6SM SCT080 BKN200
     FM292000 14014G22KT P6SM BKN080 BKN140
      TEMPO 2920/2924 VRB20G35KT TSRA BKN060CB
     FM300000 20014G22KT P6SM SCT080 BKN140=



000
FTUS45 KBOU 290048 AAA
TAFDEN
TAF AMD
KDEN 290048Z 2901/3006 06010KT P6SM FEW050 SCT070 BKN100
     FM290200 19010KT P6SM SCT070 SCT110
     FM291100 30005KT P6SM FEW008 SCT120
     FM291400 VRB05KT P6SM FEW020 SCT120
     FM291800 14010KT P6SM SCT080 BKN200
     FM292000 14014G22KT P6SM BKN080 BKN140
      TEMPO 2920/2924 VRB20G35KT TSRA BKN060CB
     FM300000 20014G22KT P6SM SCT080 BKN140=



000
FTUS45 KBOU 290048 AAA
TAFDEN
TAF AMD
KDEN 290048Z 2901/3006 06010KT P6SM FEW050 SCT070 BKN100
     FM290200 19010KT P6SM SCT070 SCT110
     FM291100 30005KT P6SM FEW008 SCT120
     FM291400 VRB05KT P6SM FEW020 SCT120
     FM291800 14010KT P6SM SCT080 BKN200
     FM292000 14014G22KT P6SM BKN080 BKN140
      TEMPO 2920/2924 VRB20G35KT TSRA BKN060CB
     FM300000 20014G22KT P6SM SCT080 BKN140=



000
FTUS45 KBOU 282346
TAFBJC
TAF
KBJC 282346Z 2900/2924 22008KT P6SM SCT070 BKN100
     FM290300 30007KT P6SM SCT070 SCT110
     FM291000 33007KT P6SM VCFG FEW006 SCT120
     FM291400 33007KT P6SM FEW020 SCT120
     FM291800 05010KT P6SM SCT080 BKN200
     FM292000 23012KT P6SM BKN080 BKN140
      TEMPO 2920/2924 VRB20G35KT TSRA BKN060CB=



000
FTUS45 KBOU 282346
TAFBJC
TAF
KBJC 282346Z 2900/2924 22008KT P6SM SCT070 BKN100
     FM290300 30007KT P6SM SCT070 SCT110
     FM291000 33007KT P6SM VCFG FEW006 SCT120
     FM291400 33007KT P6SM FEW020 SCT120
     FM291800 05010KT P6SM SCT080 BKN200
     FM292000 23012KT P6SM BKN080 BKN140
      TEMPO 2920/2924 VRB20G35KT TSRA BKN060CB=



000
FTUS45 KBOU 282338
TAFDEN
TAF
KDEN 282338Z 2900/3006 25012G22KT P6SM -TSRA BKN060CB BKN100
     FM290030 21013KT P6SM SCT070 BKN110
     FM290200 19010KT P6SM SCT070 SCT110
     FM291100 30005KT P6SM FEW008 SCT120
     FM291400 VRB05KT P6SM FEW020 SCT120
     FM291800 14010KT P6SM SCT080 BKN200
     FM292000 14014G22KT P6SM BKN080 BKN140
      TEMPO 2920/2924 VRB20G35KT TSRA BKN060CB
     FM300000 20014G22KT P6SM SCT080 BKN140=



000
FTUS45 KBOU 282338
TAFAPA
TAF
KAPA 282338Z 2900/2924 32008KT P6SM SCT070 BKN110
     FM290200 19008KT P6SM SCT070 SCT110
     FM291100 30005KT P6SM SCT120
     FM291500 VRB05KT P6SM FEW020 SCT120
     FM291700 16010KT P6SM SCT080 BKN200
     FM292000 20018G22KT P6SM BKN080 BKN140
      TEMPO 2920/2924 VRB20G35KT TSRA BKN060CB=



000
FTUS45 KBOU 282338
TAFAPA
TAF
KAPA 282338Z 2900/2924 32008KT P6SM SCT070 BKN110
     FM290200 19008KT P6SM SCT070 SCT110
     FM291100 30005KT P6SM SCT120
     FM291500 VRB05KT P6SM FEW020 SCT120
     FM291700 16010KT P6SM SCT080 BKN200
     FM292000 20018G22KT P6SM BKN080 BKN140
      TEMPO 2920/2924 VRB20G35KT TSRA BKN060CB=



000
FTUS45 KBOU 282338
TAFDEN
TAF
KDEN 282338Z 2900/3006 25012G22KT P6SM -TSRA BKN060CB BKN100
     FM290030 21013KT P6SM SCT070 BKN110
     FM290200 19010KT P6SM SCT070 SCT110
     FM291100 30005KT P6SM FEW008 SCT120
     FM291400 VRB05KT P6SM FEW020 SCT120
     FM291800 14010KT P6SM SCT080 BKN200
     FM292000 14014G22KT P6SM BKN080 BKN140
      TEMPO 2920/2924 VRB20G35KT TSRA BKN060CB
     FM300000 20014G22KT P6SM SCT080 BKN140=



000
FTUS45 KBOU 282253 AAD
TAFDEN
TAF AMD
KDEN 282253Z 2823/2924 27005KT P6SM SCT070 BKN140
     FM282315 25016G28KT P6SM -TSRA BKN060CB BKN100
     FM290015 21013KT P6SM SCT070 BKN110
     FM290200 16008KT P6SM SCT070 BKN140
     FM290600 26008KT P6SM SCT110
     FM291100 28005KT P6SM VCFG SCT004 SCT120
     FM291500 VRB05KT P6SM SCT020 SCT120
     FM291800 10010KT P6SM SCT050 SCT080 BKN200
     FM292000 14014G20KT P6SM SCT050 BKN080
      TEMPO 2920/2924 VRB20G35KT TSRA BKN050CB=



000
FTUS45 KBOU 282253 AAD
TAFDEN
TAF AMD
KDEN 282253Z 2823/2924 27005KT P6SM SCT070 BKN140
     FM282315 25016G28KT P6SM -TSRA BKN060CB BKN100
     FM290015 21013KT P6SM SCT070 BKN110
     FM290200 16008KT P6SM SCT070 BKN140
     FM290600 26008KT P6SM SCT110
     FM291100 28005KT P6SM VCFG SCT004 SCT120
     FM291500 VRB05KT P6SM SCT020 SCT120
     FM291800 10010KT P6SM SCT050 SCT080 BKN200
     FM292000 14014G20KT P6SM SCT050 BKN080
      TEMPO 2920/2924 VRB20G35KT TSRA BKN050CB=



000
FTUS45 KBOU 282121 AAA
TAFAPA
TAF AMD
KAPA 282121Z 2821/2918 02008KT P6SM SCT060 SCT100
     FM282200 05010KT P6SM SCT060 BKN100
      TEMPO 2822/2901 VRB18G30KT -TSRA BKN060CB
     FM290300 VRB06KT P6SM SCT080 BKN110
     FM290600 26008KT P6SM SCT110
     FM291100 28005KT P6SM SCT120
     FM291500 VRB05KT P6SM SCT020 SCT120=



000
FTUS45 KBOU 282121 AAA
TAFAPA
TAF AMD
KAPA 282121Z 2821/2918 02008KT P6SM SCT060 SCT100
     FM282200 05010KT P6SM SCT060 BKN100
      TEMPO 2822/2901 VRB18G30KT -TSRA BKN060CB
     FM290300 VRB06KT P6SM SCT080 BKN110
     FM290600 26008KT P6SM SCT110
     FM291100 28005KT P6SM SCT120
     FM291500 VRB05KT P6SM SCT020 SCT120=



000
FTUS45 KBOU 282115 AAC
TAFDEN
TAF AMD
KDEN 282115Z 2821/2924 12005KT P6SM SCT070 SCT140
     FM282300 10007KT P6SM SCT060 BKN100
      TEMPO 2823/2902 VRB18G30KT -TSRA BKN060CB
     FM290300 VRB06KT P6SM SCT080 BKN110
     FM290600 26008KT P6SM SCT110
     FM291100 28005KT P6SM VCFG SCT004 SCT120
     FM291500 VRB05KT P6SM SCT020 SCT120
     FM291800 10010KT P6SM SCT050 SCT080 BKN200
     FM292000 14014G20KT P6SM SCT050 BKN080
      TEMPO 2920/2924 VRB20G35KT TSRA BKN050CB=



000
FTUS45 KBOU 282115 AAC
TAFDEN
TAF AMD
KDEN 282115Z 2821/2924 12005KT P6SM SCT070 SCT140
     FM282300 10007KT P6SM SCT060 BKN100
      TEMPO 2823/2902 VRB18G30KT -TSRA BKN060CB
     FM290300 VRB06KT P6SM SCT080 BKN110
     FM290600 26008KT P6SM SCT110
     FM291100 28005KT P6SM VCFG SCT004 SCT120
     FM291500 VRB05KT P6SM SCT020 SCT120
     FM291800 10010KT P6SM SCT050 SCT080 BKN200
     FM292000 14014G20KT P6SM SCT050 BKN080
      TEMPO 2920/2924 VRB20G35KT TSRA BKN050CB=



000
FTUS45 KBOU 281942 AAB
TAFDEN
TAF AMD
KDEN 281942Z 2820/2924 03007KT P6SM FEW070 SCT090 SCT200
     FM282100 06007KT P6SM SCT080 BKN120
     FM282200 10009KT P6SM SCT070 BKN100
      TEMPO 2823/2902 VRB25G35KT -TSRA BKN070CB
     FM290300 VRB06KT P6SM SCT080 BKN110
     FM290600 26008KT P6SM SCT110
     FM291100 28005KT P6SM VCFG SCT004 SCT120
     FM291500 VRB05KT P6SM SCT020 SCT120
     FM291800 10010KT P6SM SCT050 SCT080 BKN200
     FM292000 14014G20KT P6SM SCT050 BKN080
      TEMPO 2920/2924 VRB20G35KT TSRA BKN050CB=



000
FTUS45 KBOU 281942 AAB
TAFDEN
TAF AMD
KDEN 281942Z 2820/2924 03007KT P6SM FEW070 SCT090 SCT200
     FM282100 06007KT P6SM SCT080 BKN120
     FM282200 10009KT P6SM SCT070 BKN100
      TEMPO 2823/2902 VRB25G35KT -TSRA BKN070CB
     FM290300 VRB06KT P6SM SCT080 BKN110
     FM290600 26008KT P6SM SCT110
     FM291100 28005KT P6SM VCFG SCT004 SCT120
     FM291500 VRB05KT P6SM SCT020 SCT120
     FM291800 10010KT P6SM SCT050 SCT080 BKN200
     FM292000 14014G20KT P6SM SCT050 BKN080
      TEMPO 2920/2924 VRB20G35KT TSRA BKN050CB=



000
FTUS45 KBOU 281809 AAA
TAFDEN
TAF AMD
KDEN 281809Z 2818/2924 01009KT P6SM FEW050 SCT090 SCT200
     FM282000 03010KT P6SM SCT080 BKN120
     FM282200 06010KT P6SM SCT070 BKN100
      TEMPO 2900/2902 VRB25G35KT -TSRA BKN070CB
     FM290300 VRB06KT P6SM SCT080 BKN110
     FM290600 26008KT P6SM SCT110
     FM291100 28005KT P6SM VCFG SCT004 SCT120
     FM291500 VRB05KT P6SM SCT020 SCT120
     FM291800 10010KT P6SM SCT050 SCT080 BKN200
     FM292000 14014G20KT P6SM SCT050 BKN080
      TEMPO 2920/2924 VRB20G35KT TSRA BKN050CB=



000
FTUS45 KBOU 281734
TAFDEN
TAF
KDEN 281734Z 2818/2924 34009KT P6SM FEW050 SCT090 SCT200
     FM282000 02010KT P6SM SCT080 BKN120
     FM282200 06010KT P6SM SCT070 BKN100
      TEMPO 2900/2902 VRB25G35KT -TSRA BKN070CB
     FM290300 VRB06KT P6SM SCT080 BKN110
     FM290600 26008KT P6SM SCT110
     FM291100 28005KT P6SM VCFG SCT004 SCT120
     FM291500 VRB05KT P6SM SCT020 SCT120
     FM291800 10010KT P6SM SCT050 SCT080 BKN200
     FM292000 14014G20KT P6SM SCT050 BKN080
      TEMPO 2920/2924 VRB20G35KT TSRA BKN050CB=



000
FTUS45 KBOU 281734
TAFDEN
TAF
KDEN 281734Z 2818/2924 34009KT P6SM FEW050 SCT090 SCT200
     FM282000 02010KT P6SM SCT080 BKN120
     FM282200 06010KT P6SM SCT070 BKN100
      TEMPO 2900/2902 VRB25G35KT -TSRA BKN070CB
     FM290300 VRB06KT P6SM SCT080 BKN110
     FM290600 26008KT P6SM SCT110
     FM291100 28005KT P6SM VCFG SCT004 SCT120
     FM291500 VRB05KT P6SM SCT020 SCT120
     FM291800 10010KT P6SM SCT050 SCT080 BKN200
     FM292000 14014G20KT P6SM SCT050 BKN080
      TEMPO 2920/2924 VRB20G35KT TSRA BKN050CB=



000
FTUS45 KBOU 281734
TAFAPA
TAF
KAPA 281734Z 2818/2918 34011KT P6SM FEW050 SCT090 SCT200
     FM282000 02010KT P6SM SCT080 BKN120
     FM282200 05010KT P6SM SCT070 BKN100
      TEMPO 2823/2902 VRB25G35KT -TSRA BKN070CB
     FM290300 VRB06KT P6SM SCT080 BKN110
     FM290600 26008KT P6SM SCT110
     FM291100 28005KT P6SM SCT120
     FM291500 VRB05KT P6SM SCT020 SCT120=



000
FTUS45 KBOU 281734
TAFAPA
TAF
KAPA 281734Z 2818/2918 34011KT P6SM FEW050 SCT090 SCT200
     FM282000 02010KT P6SM SCT080 BKN120
     FM282200 05010KT P6SM SCT070 BKN100
      TEMPO 2823/2902 VRB25G35KT -TSRA BKN070CB
     FM290300 VRB06KT P6SM SCT080 BKN110
     FM290600 26008KT P6SM SCT110
     FM291100 28005KT P6SM SCT120
     FM291500 VRB05KT P6SM SCT020 SCT120=



000
FTUS45 KBOU 281734
TAFBJC
TAF
KBJC 281734Z 2818/2918 34009KT P6SM FEW050 SCT090 SCT200
     FM282000 36010KT P6SM SCT080 BKN120
     FM282200 01010KT P6SM SCT070 BKN100
      TEMPO 2823/2902 VRB25G35KT -TSRA BKN070CB
     FM290300 33010KT P6SM SCT080 BKN110
     FM290600 30007KT P6SM SCT110
     FM291100 33007KT P6SM VCFG SCT004 SCT120
     FM291500 33008KT P6SM SCT020 SCT120=



000
FTUS45 KBOU 281734
TAFBJC
TAF
KBJC 281734Z 2818/2918 34009KT P6SM FEW050 SCT090 SCT200
     FM282000 36010KT P6SM SCT080 BKN120
     FM282200 01010KT P6SM SCT070 BKN100
      TEMPO 2823/2902 VRB25G35KT -TSRA BKN070CB
     FM290300 33010KT P6SM SCT080 BKN110
     FM290600 30007KT P6SM SCT110
     FM291100 33007KT P6SM VCFG SCT004 SCT120
     FM291500 33008KT P6SM SCT020 SCT120=



000
FTUS45 KBOU 281703 AAA
TAFAPA
TAF AMD
KAPA 281703Z 2817/2912 33011KT P6SM FEW050 SCT140 SCT200
     FM282000 03009KT P6SM FEW080 SCT140
     FM282200 05009KT P6SM SCT080 BKN140
      TEMPO 2822/2902 VRB15G30KT -TSRA BKN070CB
     FM290300 18009KT P6SM FEW090 SCT140
     FM290600 26008KT P6SM SCT100
     FM291100 VRB05KT P6SM FEW010 SCT120=



000
FTUS45 KBOU 281703 AAA
TAFAPA
TAF AMD
KAPA 281703Z 2817/2912 33011KT P6SM FEW050 SCT140 SCT200
     FM282000 03009KT P6SM FEW080 SCT140
     FM282200 05009KT P6SM SCT080 BKN140
      TEMPO 2822/2902 VRB15G30KT -TSRA BKN070CB
     FM290300 18009KT P6SM FEW090 SCT140
     FM290600 26008KT P6SM SCT100
     FM291100 VRB05KT P6SM FEW010 SCT120=



000
FTUS45 KBOU 281604 AAB
TAFDEN
TAF AMD
KDEN 281604Z 2816/2918 31009KT P6SM FEW200
     FM281900 01010KT P6SM FEW080 SCT140
     FM282100 05010KT P6SM FEW080 SCT140 PROB30 2900/2903 VRB15G30KT
      -TSRA BKN070CB
     FM290300 31010KT P6SM SCT080 BKN140
     FM290600 26008KT P6SM SCT100
     FM291100 24005KT P6SM FEW010 SCT120=



000
FTUS45 KBOU 281604 AAB
TAFDEN
TAF AMD
KDEN 281604Z 2816/2918 31009KT P6SM FEW200
     FM281900 01010KT P6SM FEW080 SCT140
     FM282100 05010KT P6SM FEW080 SCT140 PROB30 2900/2903 VRB15G30KT
      -TSRA BKN070CB
     FM290300 31010KT P6SM SCT080 BKN140
     FM290600 26008KT P6SM SCT100
     FM291100 24005KT P6SM FEW010 SCT120=



000
FTUS45 KBOU 281455 AAA
TAFDEN
TAF AMD
KDEN 281455Z 2815/2918 30009KT P6SM FEW200
     FM281500 35008KT P6SM SCT200
     FM281900 01010KT P6SM FEW080 SCT140
     FM282100 05010KT P6SM FEW080 SCT140 PROB30 2900/2903 VRB15G30KT
      -TSRA BKN070CB
     FM290300 31010KT P6SM SCT080 BKN140
     FM290600 26008KT P6SM SCT100
     FM291100 24005KT P6SM FEW010 SCT120=



000
FTUS45 KBOU 281455 AAA
TAFDEN
TAF AMD
KDEN 281455Z 2815/2918 30009KT P6SM FEW200
     FM281500 35008KT P6SM SCT200
     FM281900 01010KT P6SM FEW080 SCT140
     FM282100 05010KT P6SM FEW080 SCT140 PROB30 2900/2903 VRB15G30KT
      -TSRA BKN070CB
     FM290300 31010KT P6SM SCT080 BKN140
     FM290600 26008KT P6SM SCT100
     FM291100 24005KT P6SM FEW010 SCT120=



    US Dept of Commerce
    National Oceanic and Atmospheric Administration
    National Weather Service
    1325 East West Highway
    Silver Spring, MD 20910
    Page Author: NWS Internet Services Team
Disclaimer
Information Quality
Credits
Glossary
Privacy Policy
Freedom of Information Act (FOIA)
About Us
Career Opportunities